<?xml version='1.0' encoding='UTF-8'?><gpx version="1.1" creator="JPX - https://github.com/jenetics/jpx" xmlns="http://www.topografix.com/GPX/1/1"><trk><trkseg><trkpt lat="42.91430031213748" lon="13.179440075404639"><ele>1587.0</ele><time>2026-03-28T09:32:09Z</time></trkpt><trkpt lat="42.914251075088714" lon="13.179503799575789"><ele>1587.0</ele><time>2026-03-28T09:32:20Z</time></trkpt><trkpt lat="42.9141974148178" lon="13.179559556518674"><ele>1587.0</ele><time>2026-03-28T09:32:31Z</time></trkpt><trkpt lat="42.9141521665567" lon="13.179622678536056"><ele>1587.0</ele><time>2026-03-28T09:32:40Z</time></trkpt><trkpt lat="42.914117949406304" lon="13.179706297818777"><ele>1587.0</ele><time>2026-03-28T09:32:48Z</time></trkpt><trkpt lat="42.91407586985402" lon="13.179780776687927"><ele>1587.0</ele><time>2026-03-28T09:32:58.999Z</time></trkpt><trkpt lat="42.91404373141359" lon="13.179856673835388"><ele>1587.0</ele><time>2026-03-28T09:33:08.999Z</time></trkpt><trkpt lat="42.91400003477321" lon="13.179940883651717"><ele>1591.142857142857</ele><time>2026-03-28T09:33:22.999Z</time></trkpt><trkpt lat="42.9139630200038" lon="13.18002441166282"><ele>1595.2857142857144</ele><time>2026-03-28T09:33:50Z</time></trkpt><trkpt lat="42.913916632378786" lon="13.180084898145658"><ele>1599.4285714285716</ele><time>2026-03-28T09:34:01Z</time></trkpt><trkpt lat="42.913872369176794" lon="13.180147848944099"><ele>1603.5714285714284</ele><time>2026-03-28T09:34:38Z</time></trkpt><trkpt lat="42.91382532875161" lon="13.180213030346733"><ele>1607.7142857142858</ele><time>2026-03-28T09:34:53.999Z</time></trkpt><trkpt lat="42.91377096261065" lon="13.180271856787533"><ele>1611.857142857143</ele><time>2026-03-28T09:35:02.999Z</time></trkpt><trkpt lat="42.91372378878927" lon="13.180333666026465"><ele>1616.0</ele><time>2026-03-28T09:35:14.999Z</time></trkpt><trkpt lat="42.9136794887634" lon="13.180401568602731"><ele>1616.0</ele><time>2026-03-28T09:35:23.999Z</time></trkpt><trkpt lat="42.91363847558537" lon="13.180467267442939"><ele>1616.0</ele><time>2026-03-28T09:35:32.999Z</time></trkpt><trkpt lat="42.91359071837887" lon="13.180528827069468"><ele>1616.0</ele><time>2026-03-28T09:35:41.999Z</time></trkpt><trkpt lat="42.9135458423893" lon="13.180600212316032"><ele>1616.0</ele><time>2026-03-28T09:36:01Z</time></trkpt><trkpt lat="42.913506078853416" lon="13.180672542910573"><ele>1616.0</ele><time>2026-03-28T09:36:12Z</time></trkpt><trkpt lat="42.91345770940477" lon="13.180742227441964"><ele>1616.0</ele><time>2026-03-28T09:36:29Z</time></trkpt><trkpt lat="42.91342328282972" lon="13.18081849271769"><ele>1616.0</ele><time>2026-03-28T09:36:39Z</time></trkpt><trkpt lat="42.91337970855617" lon="13.180889575410452"><ele>1619.7142857142858</ele><time>2026-03-28T09:36:55.999Z</time></trkpt><trkpt lat="42.91332333202512" lon="13.180932079201883"><ele>1623.4285714285713</ele><time>2026-03-28T09:37:31.999Z</time></trkpt><trkpt lat="42.91327628763511" lon="13.18099273352834"><ele>1627.1428571428573</ele><time>2026-03-28T09:37:39.999Z</time></trkpt><trkpt lat="42.91324551382732" lon="13.181070340932234"><ele>1630.857142857143</ele><time>2026-03-28T09:37:49.999Z</time></trkpt><trkpt lat="42.91320707799793" lon="13.18114478172329"><ele>1634.5714285714287</ele><time>2026-03-28T09:38:00Z</time></trkpt><trkpt lat="42.913195092825184" lon="13.18122999433624"><ele>1638.2857142857144</ele><time>2026-03-28T09:38:11Z</time></trkpt><trkpt lat="42.9131751671758" lon="13.181314101670557"><ele>1642.0</ele><time>2026-03-28T09:38:24Z</time></trkpt><trkpt lat="42.91311510808317" lon="13.18141309340981"><ele>1642.0000000000002</ele><time>2026-03-28T09:38:51Z</time></trkpt><trkpt lat="42.91307829863949" lon="13.18148985365205"><ele>1642.0</ele><time>2026-03-28T09:39:02Z</time></trkpt><trkpt lat="42.91304122503034" lon="13.181567164761773"><ele>1642.0</ele><time>2026-03-28T09:39:42.999Z</time></trkpt><trkpt lat="42.91300634226232" lon="13.181642327013217"><ele>1642.0</ele><time>2026-03-28T09:39:51.999Z</time></trkpt><trkpt lat="42.91293883597904" lon="13.181620747158986"><ele>1642.0</ele><time>2026-03-28T09:41:46.999Z</time></trkpt><trkpt lat="42.91292991977864" lon="13.181720628487499"><ele>1642.0000000000002</ele><time>2026-03-28T09:41:54.999Z</time></trkpt><trkpt lat="42.91287309830074" lon="13.181773255117085"><ele>1642.0</ele><time>2026-03-28T09:42:09Z</time></trkpt><trkpt lat="42.91286782224461" lon="13.181863468371382"><ele>1644.857142857143</ele><time>2026-03-28T09:42:18Z</time></trkpt><trkpt lat="42.912881944033124" lon="13.181957978714651"><ele>1647.7142857142858</ele><time>2026-03-28T09:42:26Z</time></trkpt><trkpt lat="42.912831322737084" lon="13.18200989864692"><ele>1650.5714285714284</ele><time>2026-03-28T09:42:58Z</time></trkpt><trkpt lat="42.91280754883257" lon="13.182089522752502"><ele>1653.4285714285716</ele><time>2026-03-28T09:43:11Z</time></trkpt><trkpt lat="42.912806395080075" lon="13.182180712014638"><ele>1656.2857142857142</ele><time>2026-03-28T09:43:27.999Z</time></trkpt><trkpt lat="42.91274662025545" lon="13.1822178729344"><ele>1659.142857142857</ele><time>2026-03-28T09:43:41.999Z</time></trkpt><trkpt lat="42.912707542362476" lon="13.182299730268978"><ele>1662.0</ele><time>2026-03-28T09:43:54.999Z</time></trkpt><trkpt lat="42.91271612462717" lon="13.182390587998867"><ele>1667.142857142857</ele><time>2026-03-28T09:44:06.999Z</time></trkpt><trkpt lat="42.91266405738509" lon="13.182467327430203"><ele>1672.2857142857142</ele><time>2026-03-28T09:47:38.999Z</time></trkpt><trkpt lat="42.9126027887857" lon="13.182499891629172"><ele>1677.4285714285716</ele><time>2026-03-28T09:47:47.999Z</time></trkpt><trkpt lat="42.91258479001494" lon="13.182590468410234"><ele>1682.5714285714284</ele><time>2026-03-28T09:47:56.999Z</time></trkpt><trkpt lat="42.91258719572698" lon="13.182682960219632"><ele>1687.7142857142858</ele><time>2026-03-28T09:48:04.999Z</time></trkpt><trkpt lat="42.912610899961805" lon="13.182768712115596"><ele>1692.857142857143</ele><time>2026-03-28T09:48:12.999Z</time></trkpt><trkpt lat="42.91254331384437" lon="13.182797196147307"><ele>1698.0</ele><time>2026-03-28T09:48:24Z</time></trkpt><trkpt lat="42.91248971512584" lon="13.182856817059315"><ele>1699.0000000000002</ele><time>2026-03-28T09:48:34Z</time></trkpt><trkpt lat="42.91249292213829" lon="13.182953624642817"><ele>1700.0</ele><time>2026-03-28T09:48:43Z</time></trkpt><trkpt lat="42.91245845061137" lon="13.183031722799651"><ele>1701.0</ele><time>2026-03-28T09:48:55Z</time></trkpt><trkpt lat="42.91241752941918" lon="13.183103322715409"><ele>1702.0</ele><time>2026-03-28T09:49:21Z</time></trkpt><trkpt lat="42.91239019554217" lon="13.18318149034322"><ele>1703.0</ele><time>2026-03-28T09:49:44.999Z</time></trkpt><trkpt lat="42.91236439148075" lon="13.183260360232397"><ele>1704.0000000000002</ele><time>2026-03-28T09:49:56.999Z</time></trkpt><trkpt lat="42.912341984945115" lon="13.183341859473904"><ele>1705.0</ele><time>2026-03-28T09:50:06.999Z</time></trkpt><trkpt lat="42.91232143593893" lon="13.183426519056727"><ele>1707.7142857142858</ele><time>2026-03-28T09:50:17.999Z</time></trkpt><trkpt lat="42.91229577105379" lon="13.183511434146375"><ele>1710.4285714285716</ele><time>2026-03-28T09:50:26.999Z</time></trkpt><trkpt lat="42.91226358595858" lon="13.183594562061314"><ele>1713.1428571428573</ele><time>2026-03-28T09:50:56Z</time></trkpt><trkpt lat="42.91225118136315" lon="13.183680596332966"><ele>1715.857142857143</ele><time>2026-03-28T09:51:05Z</time></trkpt><trkpt lat="42.912256556680624" lon="13.183767564541204"><ele>1718.5714285714284</ele><time>2026-03-28T09:51:14Z</time></trkpt><trkpt lat="42.91227068208551" lon="13.183859222228543"><ele>1721.2857142857144</ele><time>2026-03-28T09:51:43.999Z</time></trkpt><trkpt lat="42.912300734133055" lon="13.183938954823144"><ele>1724.0</ele><time>2026-03-28T09:51:50.999Z</time></trkpt><trkpt lat="42.9123355895026" lon="13.184020048212501"><ele>1726.5714285714287</ele><time>2026-03-28T09:51:59.999Z</time></trkpt><trkpt lat="42.91236267846853" lon="13.184106679600328"><ele>1729.142857142857</ele><time>2026-03-28T09:52:07.999Z</time></trkpt><trkpt lat="42.91240072966417" lon="13.18418715580169"><ele>1731.7142857142858</ele><time>2026-03-28T09:52:48Z</time></trkpt><trkpt lat="42.91243397444342" lon="13.184265800268985"><ele>1734.2857142857142</ele><time>2026-03-28T09:52:56Z</time></trkpt><trkpt lat="42.91248951186579" lon="13.184312924062759"><ele>1736.8571428571427</ele><time>2026-03-28T09:53:05Z</time></trkpt><trkpt lat="42.91254503248172" lon="13.184266895834472"><ele>1739.4285714285713</ele><time>2026-03-28T09:53:16Z</time></trkpt><trkpt lat="42.91261194280016" lon="13.18429310342705"><ele>1742.0</ele><time>2026-03-28T09:53:52.999Z</time></trkpt><trkpt lat="42.91267732541759" lon="13.184288546508974"><ele>1745.142857142857</ele><time>2026-03-28T09:54:37.999Z</time></trkpt><trkpt lat="42.912731657668196" lon="13.184337880205849"><ele>1748.2857142857142</ele><time>2026-03-28T09:54:47Z</time></trkpt><trkpt lat="42.912761243987376" lon="13.184231463989311"><ele>1751.4285714285716</ele><time>2026-03-28T09:54:48Z</time></trkpt><trkpt lat="42.912699944613315" lon="13.18425427473784"><ele>1754.5714285714284</ele><time>2026-03-28T10:32:31Z</time></trkpt><trkpt lat="42.9126786521033" lon="13.184335255028895"><ele>1757.7142857142858</ele><time>2026-03-28T10:32:44Z</time></trkpt><trkpt lat="42.912749946709255" lon="13.18435009035801"><ele>1760.857142857143</ele><time>2026-03-28T10:33:05Z</time></trkpt><trkpt lat="42.91278992154103" lon="13.184419103193036"><ele>1764.0</ele><time>2026-03-28T10:33:31Z</time></trkpt><trkpt lat="42.912839292574716" lon="13.184474929746022"><ele>1764.0</ele><time>2026-03-28T10:34:13.999Z</time></trkpt><trkpt lat="42.91294221533979" lon="13.184429689911738"><ele>1764.0</ele><time>2026-03-28T10:34:40Z</time></trkpt><trkpt lat="42.91296206175281" lon="13.184515522275701"><ele>1764.0</ele><time>2026-03-28T10:34:55Z</time></trkpt><trkpt lat="42.913001121209106" lon="13.18458437872171"><ele>1764.0</ele><time>2026-03-28T10:35:09Z</time></trkpt><trkpt lat="42.91306467934185" lon="13.184572748441116"><ele>1764.0</ele><time>2026-03-28T10:35:17Z</time></trkpt><trkpt lat="42.913130796977484" lon="13.18456254354938"><ele>1764.0</ele><time>2026-03-28T10:35:27Z</time></trkpt><trkpt lat="42.91314136551222" lon="13.184662624315806"><ele>1764.0</ele><time>2026-03-28T10:35:45Z</time></trkpt><trkpt lat="42.913142398665805" lon="13.184753968689968"><ele>1764.0</ele><time>2026-03-28T10:35:52Z</time></trkpt><trkpt lat="42.91320385525165" lon="13.184779592246647"><ele>1764.0</ele><time>2026-03-28T10:36:59Z</time></trkpt><trkpt lat="42.913270455869906" lon="13.184773325026041"><ele>1764.0</ele><time>2026-03-28T10:37:07Z</time></trkpt><trkpt lat="42.91333209795345" lon="13.184797341502236"><ele>1764.0</ele><time>2026-03-28T10:37:14Z</time></trkpt><trkpt lat="42.91339671250754" lon="13.18478027605978"><ele>1764.0</ele><time>2026-03-28T10:37:21Z</time></trkpt><trkpt lat="42.913464990547915" lon="13.184788492603463"><ele>1764.0</ele><time>2026-03-28T10:37:29Z</time></trkpt><trkpt lat="42.913528215586275" lon="13.184787447221177"><ele>1764.0</ele><time>2026-03-28T10:37:43Z</time></trkpt><trkpt lat="42.91358363844245" lon="13.184738568837007"><ele>1766.5714285714287</ele><time>2026-03-28T10:37:49Z</time></trkpt><trkpt lat="42.91363797492353" lon="13.184788938365038"><ele>1769.142857142857</ele><time>2026-03-28T10:38:02.999Z</time></trkpt><trkpt lat="42.91363796852918" lon="13.184874905433611"><ele>1771.7142857142858</ele><time>2026-03-28T10:38:06.999Z</time></trkpt><trkpt lat="42.91365091163244" lon="13.184966116004945"><ele>1774.2857142857142</ele><time>2026-03-28T10:38:22.999Z</time></trkpt><trkpt lat="42.91362465541667" lon="13.185045930966067"><ele>1776.857142857143</ele><time>2026-03-28T10:40:05.999Z</time></trkpt><trkpt lat="42.91366928244648" lon="13.185112341227684"><ele>1779.4285714285716</ele><time>2026-03-28T10:40:13.999Z</time></trkpt><trkpt lat="42.91368310984775" lon="13.185199022663953"><ele>1782.0</ele><time>2026-03-28T10:40:23.999Z</time></trkpt><trkpt lat="42.91375362017627" lon="13.185198509443493"><ele>1784.7142857142858</ele><time>2026-03-28T10:40:31.999Z</time></trkpt><trkpt lat="42.91376670048351" lon="13.185283346866559"><ele>1787.4285714285716</ele><time>2026-03-28T10:40:59Z</time></trkpt><trkpt lat="42.91382306226557" lon="13.185324745668307"><ele>1790.1428571428573</ele><time>2026-03-28T10:41:08Z</time></trkpt><trkpt lat="42.91388119848327" lon="13.185359706996223"><ele>1792.857142857143</ele><time>2026-03-28T10:41:16Z</time></trkpt><trkpt lat="42.913929803602244" lon="13.185419168666575"><ele>1795.5714285714284</ele><time>2026-03-28T10:41:27Z</time></trkpt><trkpt lat="42.913993876917345" lon="13.18543316005313"><ele>1798.2857142857144</ele><time>2026-03-28T10:41:36Z</time></trkpt><trkpt lat="42.91404097990897" lon="13.185496212495963"><ele>1801.0</ele><time>2026-03-28T10:42:21.999Z</time></trkpt><trkpt lat="42.914030371030925" lon="13.185582578456414"><ele>1801.0</ele><time>2026-03-28T10:42:30.999Z</time></trkpt><trkpt lat="42.914028764125256" lon="13.185670257678925"><ele>1801.0</ele><time>2026-03-28T10:42:46.999Z</time></trkpt><trkpt lat="42.91405085182982" lon="13.18576209016425"><ele>1801.0</ele><time>2026-03-28T10:42:55.999Z</time></trkpt><trkpt lat="42.91407739179241" lon="13.185842001747684"><ele>1801.0</ele><time>2026-03-28T10:43:06Z</time></trkpt><trkpt lat="42.914075607962225" lon="13.185938014058879"><ele>1801.0</ele><time>2026-03-28T10:43:55Z</time></trkpt><trkpt lat="42.91409748029775" lon="13.186019361057433"><ele>1801.0</ele><time>2026-03-28T10:44:06.999Z</time></trkpt><trkpt lat="42.91406753823962" lon="13.18609949799894"><ele>1801.0</ele><time>2026-03-28T10:44:22.999Z</time></trkpt><trkpt lat="42.914079462688264" lon="13.186188153726281"><ele>1802.857142857143</ele><time>2026-03-28T10:44:34.999Z</time></trkpt><trkpt lat="42.91405747424786" lon="13.186269992642005"><ele>1804.7142857142858</ele><time>2026-03-28T10:44:57.999Z</time></trkpt><trkpt lat="42.914105966489096" lon="13.186335948833484"><ele>1806.5714285714287</ele><time>2026-03-28T10:45:07Z</time></trkpt><trkpt lat="42.914087009935606" lon="13.186422365308015"><ele>1808.4285714285716</ele><time>2026-03-28T10:45:17Z</time></trkpt><trkpt lat="42.914126271307644" lon="13.186499726588794"><ele>1810.2857142857142</ele><time>2026-03-28T10:45:35Z</time></trkpt><trkpt lat="42.91412067429575" lon="13.18658855650568"><ele>1812.1428571428573</ele><time>2026-03-28T10:46:03Z</time></trkpt><trkpt lat="42.9140648948625" lon="13.186637711682122"><ele>1814.0000000000002</ele><time>2026-03-28T10:46:12Z</time></trkpt><trkpt lat="42.9140563160228" lon="13.186728543994798"><ele>1817.714285714286</ele><time>2026-03-28T10:46:33.999Z</time></trkpt><trkpt lat="42.914098307541416" lon="13.186793719420741"><ele>1821.4285714285716</ele><time>2026-03-28T10:46:42.999Z</time></trkpt><trkpt lat="42.91404946153134" lon="13.186854907194387"><ele>1825.142857142857</ele><time>2026-03-28T10:46:56.999Z</time></trkpt><trkpt lat="42.91399264756553" lon="13.186901272688631"><ele>1828.857142857143</ele><time>2026-03-28T10:47:04.999Z</time></trkpt><trkpt lat="42.914034209406864" lon="13.186977430293565"><ele>1832.5714285714284</ele><time>2026-03-28T10:47:17Z</time></trkpt><trkpt lat="42.91406914581411" lon="13.187048948819402"><ele>1836.285714285714</ele><time>2026-03-28T10:47:28Z</time></trkpt><trkpt lat="42.91400603774386" lon="13.187075723472116"><ele>1839.9999999999998</ele><time>2026-03-28T10:48:35.999Z</time></trkpt><trkpt lat="42.913961146530106" lon="13.18714193362436"><ele>1839.9999999999998</ele><time>2026-03-28T10:48:45.999Z</time></trkpt><trkpt lat="42.91399783864082" lon="13.187228936224102"><ele>1840.0</ele><time>2026-03-28T10:48:57.999Z</time></trkpt><trkpt lat="42.913978291406806" lon="13.18731698650654"><ele>1839.9999999999998</ele><time>2026-03-28T10:49:16Z</time></trkpt><trkpt lat="42.913932783919606" lon="13.187380930587485"><ele>1839.9999999999998</ele><time>2026-03-28T10:49:26Z</time></trkpt><trkpt lat="42.913894151853576" lon="13.187451433082712"><ele>1840.0</ele><time>2026-03-28T10:49:36Z</time></trkpt><trkpt lat="42.913843908494464" lon="13.18751494931705"><ele>1839.9999999999998</ele><time>2026-03-28T10:50:52.999Z</time></trkpt><trkpt lat="42.913799931862876" lon="13.187580082495588"><ele>1839.9999999999998</ele><time>2026-03-28T10:51:00.999Z</time></trkpt><trkpt lat="42.913750457585515" lon="13.187649221748174"><ele>1843.285714285714</ele><time>2026-03-28T10:51:10.999Z</time></trkpt><trkpt lat="42.91371729372834" lon="13.187725243285163"><ele>1846.5714285714284</ele><time>2026-03-28T10:51:19.999Z</time></trkpt><trkpt lat="42.91367403059159" lon="13.187802394102958"><ele>1849.857142857143</ele><time>2026-03-28T10:51:35Z</time></trkpt><trkpt lat="42.913631062807596" lon="13.187874292651172"><ele>1853.142857142857</ele><time>2026-03-28T10:51:44Z</time></trkpt><trkpt lat="42.91362337589666" lon="13.187965772833195"><ele>1856.4285714285716</ele><time>2026-03-28T10:51:56Z</time></trkpt><trkpt lat="42.913671199156674" lon="13.188023540572672"><ele>1859.714285714286</ele><time>2026-03-28T10:52:28Z</time></trkpt><trkpt lat="42.91371419433325" lon="13.18809390853199"><ele>1863.0000000000002</ele><time>2026-03-28T10:52:39.999Z</time></trkpt><trkpt lat="42.91366084592377" lon="13.18814303245772"><ele>1865.8571428571431</ele><time>2026-03-28T10:52:49.999Z</time></trkpt><trkpt lat="42.913637486593466" lon="13.18822412905633"><ele>1868.7142857142858</ele><time>2026-03-28T10:53:00.999Z</time></trkpt><trkpt lat="42.91363360174249" lon="13.188313386157004"><ele>1871.5714285714287</ele><time>2026-03-28T10:53:11.999Z</time></trkpt><trkpt lat="42.91359575334111" lon="13.188386499957721"><ele>1874.4285714285716</ele><time>2026-03-28T10:53:34Z</time></trkpt><trkpt lat="42.91356136897884" lon="13.188474291749724"><ele>1877.2857142857142</ele><time>2026-03-28T10:53:44Z</time></trkpt><trkpt lat="42.91358418214868" lon="13.188558049651599"><ele>1880.142857142857</ele><time>2026-03-28T10:53:53Z</time></trkpt><trkpt lat="42.91355580229175" lon="13.188635905816735"><ele>1883.0</ele><time>2026-03-28T10:54:08Z</time></trkpt><trkpt lat="42.913558933070966" lon="13.188726583160268"><ele>1883.0</ele><time>2026-03-28T10:54:19Z</time></trkpt><trkpt lat="42.913574103068655" lon="13.188812675301838"><ele>1883.0</ele><time>2026-03-28T10:54:29Z</time></trkpt><trkpt lat="42.913551363769585" lon="13.188894811925238"><ele>1883.0</ele><time>2026-03-28T10:55:09.999Z</time></trkpt><trkpt lat="42.913514545797526" lon="13.188971388033817"><ele>1883.0</ele><time>2026-03-28T10:55:18.999Z</time></trkpt><trkpt lat="42.913540617679324" lon="13.189057818993424"><ele>1883.0</ele><time>2026-03-28T10:55:27.999Z</time></trkpt><trkpt lat="42.913564384772855" lon="13.189139677241705"><ele>1883.0</ele><time>2026-03-28T10:55:37Z</time></trkpt><trkpt lat="42.91351990302776" lon="13.189209601887653"><ele>1883.0</ele><time>2026-03-28T10:55:49Z</time></trkpt><trkpt lat="42.91347970820111" lon="13.18927594504826"><ele>1886.0</ele><time>2026-03-28T10:56:01Z</time></trkpt><trkpt lat="42.91350992653952" lon="13.189360104537917"><ele>1889.0</ele><time>2026-03-28T10:56:13Z</time></trkpt><trkpt lat="42.913535037668815" lon="13.189440023300218"><ele>1892.0</ele><time>2026-03-28T10:56:21Z</time></trkpt><trkpt lat="42.91351524646025" lon="13.189525039900586"><ele>1895.0</ele><time>2026-03-28T10:56:33Z</time></trkpt><trkpt lat="42.91348229759005" lon="13.189599559197415"><ele>1898.0</ele><time>2026-03-28T10:56:41.999Z</time></trkpt><trkpt lat="42.91347219486661" lon="13.189696751111216"><ele>1901.0</ele><time>2026-03-28T10:57:10.999Z</time></trkpt><trkpt lat="42.91348775087545" lon="13.18978534184735"><ele>1904.0</ele><time>2026-03-28T10:57:19.999Z</time></trkpt><trkpt lat="42.9135004527175" lon="13.189870446519812"><ele>1906.857142857143</ele><time>2026-03-28T10:57:26.999Z</time></trkpt><trkpt lat="42.9134676670152" lon="13.189952059692603"><ele>1909.7142857142858</ele><time>2026-03-28T10:57:38.999Z</time></trkpt><trkpt lat="42.91342839812761" lon="13.190024399415389"><ele>1912.5714285714284</ele><time>2026-03-28T10:57:52Z</time></trkpt><trkpt lat="42.913446338128054" lon="13.190116248941072"><ele>1915.4285714285713</ele><time>2026-03-28T10:58:05Z</time></trkpt><trkpt lat="42.913479827381174" lon="13.190189820043877"><ele>1918.2857142857142</ele><time>2026-03-28T10:58:18Z</time></trkpt><trkpt lat="42.91350873698583" lon="13.19027500889319"><ele>1921.1428571428569</ele><time>2026-03-28T10:58:26Z</time></trkpt><trkpt lat="42.91350316320987" lon="13.190366384177644"><ele>1923.9999999999998</ele><time>2026-03-28T10:58:45Z</time></trkpt><trkpt lat="42.913473671390506" lon="13.190445933771588"><ele>1923.9999999999998</ele><time>2026-03-28T10:58:52.999Z</time></trkpt><trkpt lat="42.91349541781806" lon="13.190531728848914"><ele>1924.0</ele><time>2026-03-28T10:59:02.999Z</time></trkpt><trkpt lat="42.91353175851531" lon="13.19060204958872"><ele>1923.9999999999998</ele><time>2026-03-28T10:59:10.999Z</time></trkpt><trkpt lat="42.913570257394284" lon="13.190674279248475"><ele>1923.9999999999998</ele><time>2026-03-28T10:59:18.999Z</time></trkpt><trkpt lat="42.91360833993121" lon="13.190746452340901"><ele>1924.0</ele><time>2026-03-28T10:59:26.999Z</time></trkpt><trkpt lat="42.91363468378185" lon="13.19083990069949"><ele>1923.9999999999998</ele><time>2026-03-28T10:59:37.999Z</time></trkpt><trkpt lat="42.913615965634165" lon="13.190757604284409"><ele>1923.9999999999998</ele><time>2026-03-28T11:23:51Z</time></trkpt><trkpt lat="42.91354970937068" lon="13.190710049695943"><ele>1924.0</ele><time>2026-03-28T11:23:54Z</time></trkpt><trkpt lat="42.91349771698672" lon="13.190616648647167"><ele>1924.0</ele><time>2026-03-28T11:28:41.999Z</time></trkpt><trkpt lat="42.91347440056815" lon="13.190517906339133"><ele>1924.0</ele><time>2026-03-28T11:28:43.999Z</time></trkpt><trkpt lat="42.91343864123432" lon="13.190377191039378"><ele>1924.0</ele><time>2026-03-28T11:28:45.999Z</time></trkpt><trkpt lat="42.91343138398907" lon="13.190226608839115"><ele>1924.0</ele><time>2026-03-28T11:28:47.999Z</time></trkpt><trkpt lat="42.913418208627945" lon="13.190074598603186"><ele>1924.3333333333335</ele><time>2026-03-28T11:28:49.999Z</time></trkpt><trkpt lat="42.913370688597254" lon="13.190015649069194"><ele>1924.6666666666667</ele><time>2026-03-28T11:28:50.999Z</time></trkpt><trkpt lat="42.91340274127683" lon="13.189856374114148"><ele>1925.0</ele><time>2026-03-28T11:28:52.999Z</time></trkpt><trkpt lat="42.91338746859872" lon="13.189764206957632"><ele>1925.3333333333335</ele><time>2026-03-28T11:28:53.999Z</time></trkpt><trkpt lat="42.913417187903086" lon="13.189611867376973"><ele>1925.6666666666667</ele><time>2026-03-28T11:28:55.999Z</time></trkpt><trkpt lat="42.913380381854495" lon="13.189541566917756"><ele>1926.0</ele><time>2026-03-28T11:28:56.999Z</time></trkpt><trkpt lat="42.91340491086455" lon="13.189458242350966"><ele>1923.0</ele><time>2026-03-28T11:28:57.999Z</time></trkpt><trkpt lat="42.91339586321986" lon="13.1893139059026"><ele>1920.0</ele><time>2026-03-28T11:28:59.999Z</time></trkpt><trkpt lat="42.91348850332487" lon="13.189239493294995"><ele>1917.0</ele><time>2026-03-28T11:29:01.999Z</time></trkpt><trkpt lat="42.91345736492287" lon="13.189112073228086"><ele>1914.0</ele><time>2026-03-28T11:29:03.999Z</time></trkpt><trkpt lat="42.9134906127522" lon="13.188945900105397"><ele>1911.0</ele><time>2026-03-28T11:29:05.999Z</time></trkpt><trkpt lat="42.91355966184788" lon="13.18880166351523"><ele>1905.4</ele><time>2026-03-28T11:29:07.999Z</time></trkpt><trkpt lat="42.91344973112615" lon="13.188679840375283"><ele>1899.8</ele><time>2026-03-28T11:29:08.999Z</time></trkpt><trkpt lat="42.91346421957909" lon="13.188572625219019"><ele>1894.2000000000003</ele><time>2026-03-28T11:29:10Z</time></trkpt><trkpt lat="42.91352745769545" lon="13.188449341215623"><ele>1888.6000000000001</ele><time>2026-03-28T11:29:11Z</time></trkpt><trkpt lat="42.913563676444326" lon="13.18835910057025"><ele>1883.0</ele><time>2026-03-28T11:29:12Z</time></trkpt><trkpt lat="42.91375608554968" lon="13.188373098742563"><ele>1882.9999999999998</ele><time>2026-03-28T11:29:13Z</time></trkpt><trkpt lat="42.913734776564915" lon="13.188276615588686"><ele>1883.0</ele><time>2026-03-28T11:29:14Z</time></trkpt><trkpt lat="42.913736456776526" lon="13.188187731822477"><ele>1883.0</ele><time>2026-03-28T11:29:15Z</time></trkpt><trkpt lat="42.91378433983581" lon="13.188099639207838"><ele>1883.0</ele><time>2026-03-28T11:29:17Z</time></trkpt><trkpt lat="42.91369939535423" lon="13.188101283828555"><ele>1882.9999999999998</ele><time>2026-03-28T11:29:19Z</time></trkpt><trkpt lat="42.9137055613262" lon="13.187986870424313"><ele>1883.0</ele><time>2026-03-28T11:29:48Z</time></trkpt><trkpt lat="42.913792319307944" lon="13.187904761264184"><ele>1880.142857142857</ele><time>2026-03-28T11:29:50Z</time></trkpt><trkpt lat="42.913849650499955" lon="13.18780871633948"><ele>1877.2857142857142</ele><time>2026-03-28T11:29:52Z</time></trkpt><trkpt lat="42.913831295242" lon="13.187718651650837"><ele>1874.4285714285716</ele><time>2026-03-28T11:29:53Z</time></trkpt><trkpt lat="42.91385819628128" lon="13.187638806982111"><ele>1871.5714285714287</ele><time>2026-03-28T11:29:54Z</time></trkpt><trkpt lat="42.91383645358219" lon="13.187556003574354"><ele>1868.7142857142858</ele><time>2026-03-28T11:29:55Z</time></trkpt><trkpt lat="42.91386453971584" lon="13.187473289670015"><ele>1865.8571428571431</ele><time>2026-03-28T11:29:56Z</time></trkpt><trkpt lat="42.91387355130823" lon="13.187372410168956"><ele>1863.0000000000002</ele><time>2026-03-28T11:29:57Z</time></trkpt><trkpt lat="42.91386920879567" lon="13.187282908725573"><ele>1859.1666666666667</ele><time>2026-03-28T11:29:58Z</time></trkpt><trkpt lat="42.913871895794124" lon="13.18718147875962"><ele>1855.3333333333335</ele><time>2026-03-28T11:29:59Z</time></trkpt><trkpt lat="42.91387657045668" lon="13.18707959753104"><ele>1851.5</ele><time>2026-03-28T11:30:00Z</time></trkpt><trkpt lat="42.91388776108082" lon="13.186970671936393"><ele>1847.6666666666667</ele><time>2026-03-28T11:30:01Z</time></trkpt><trkpt lat="42.91390952394242" lon="13.18686188948944"><ele>1843.8333333333335</ele><time>2026-03-28T11:30:02Z</time></trkpt><trkpt lat="42.9139264242776" lon="13.186762252670608"><ele>1840.0</ele><time>2026-03-28T11:30:03Z</time></trkpt><trkpt lat="42.913945880193374" lon="13.186665051716224"><ele>1835.6666666666667</ele><time>2026-03-28T11:30:04Z</time></trkpt><trkpt lat="42.91396813576565" lon="13.186501219186596"><ele>1831.3333333333335</ele><time>2026-03-28T11:30:06Z</time></trkpt><trkpt lat="42.913890016640686" lon="13.186476978153811"><ele>1827.0</ele><time>2026-03-28T11:30:08Z</time></trkpt><trkpt lat="42.91381054466536" lon="13.186446810071583"><ele>1822.6666666666665</ele><time>2026-03-28T11:30:11Z</time></trkpt><trkpt lat="42.91384834285455" lon="13.186343704807411"><ele>1818.3333333333333</ele><time>2026-03-28T11:30:14Z</time></trkpt><trkpt lat="42.913894085303845" lon="13.186255687855464"><ele>1814.0</ele><time>2026-03-28T11:30:15Z</time></trkpt><trkpt lat="42.913965447979486" lon="13.186142243173501"><ele>1813.9999999999998</ele><time>2026-03-28T11:30:17Z</time></trkpt><trkpt lat="42.9139995020668" lon="13.186042527176754"><ele>1814.0</ele><time>2026-03-28T11:30:18Z</time></trkpt><trkpt lat="42.91402392438478" lon="13.185940304720644"><ele>1814.0</ele><time>2026-03-28T11:30:19Z</time></trkpt><trkpt lat="42.914032849638986" lon="13.185831685582556"><ele>1814.0</ele><time>2026-03-28T11:30:20Z</time></trkpt><trkpt lat="42.91404926052223" lon="13.185707163914579"><ele>1813.9999999999998</ele><time>2026-03-28T11:30:21Z</time></trkpt><trkpt lat="42.91407734092989" lon="13.18558881525067"><ele>1814.0</ele><time>2026-03-28T11:30:22Z</time></trkpt><trkpt lat="42.91412216771" lon="13.185422080004983"><ele>1811.4</ele><time>2026-03-28T11:30:23Z</time></trkpt><trkpt lat="42.91412731418527" lon="13.185308398568532"><ele>1808.8000000000002</ele><time>2026-03-28T11:30:24Z</time></trkpt><trkpt lat="42.9141549044826" lon="13.185191119123518"><ele>1806.1999999999998</ele><time>2026-03-28T11:30:25Z</time></trkpt><trkpt lat="42.91418476848313" lon="13.184999942539697"><ele>1803.6</ele><time>2026-03-28T11:30:25.999Z</time></trkpt><trkpt lat="42.914241388506376" lon="13.184846533867844"><ele>1801.0</ele><time>2026-03-28T11:30:27.999Z</time></trkpt><trkpt lat="42.91426179061555" lon="13.18475331398399"><ele>1795.1999999999998</ele><time>2026-03-28T11:30:28.999Z</time></trkpt><trkpt lat="42.914287838599144" lon="13.184668717532988"><ele>1789.3999999999999</ele><time>2026-03-28T11:30:29.999Z</time></trkpt><trkpt lat="42.91432524156144" lon="13.184511540753684"><ele>1783.6</ele><time>2026-03-28T11:30:31.999Z</time></trkpt><trkpt lat="42.914347646306986" lon="13.184371517260107"><ele>1777.8</ele><time>2026-03-28T11:30:33.999Z</time></trkpt><trkpt lat="42.91439931886999" lon="13.184301899471876"><ele>1772.0</ele><time>2026-03-28T11:30:35.999Z</time></trkpt><trkpt lat="42.91428629790396" lon="13.184346446961216"><ele>1773.6666666666665</ele><time>2026-03-28T11:31:27Z</time></trkpt><trkpt lat="42.914226177935106" lon="13.184405064871552"><ele>1775.3333333333333</ele><time>2026-03-28T11:31:30Z</time></trkpt><trkpt lat="42.91415197347589" lon="13.18446510441388"><ele>1777.0</ele><time>2026-03-28T11:31:33Z</time></trkpt><trkpt lat="42.914064074248984" lon="13.184520877358457"><ele>1778.6666666666665</ele><time>2026-03-28T11:31:36Z</time></trkpt><trkpt lat="42.91399624799642" lon="13.18456645940143"><ele>1780.3333333333333</ele><time>2026-03-28T11:31:38Z</time></trkpt><trkpt lat="42.91392322565349" lon="13.184639701723079"><ele>1782.0</ele><time>2026-03-28T11:31:40Z</time></trkpt><trkpt lat="42.91383887688128" lon="13.184700959809568"><ele>1782.0</ele><time>2026-03-28T11:31:42Z</time></trkpt><trkpt lat="42.91372602307964" lon="13.184656035041403"><ele>1782.0</ele><time>2026-03-28T11:31:44Z</time></trkpt><trkpt lat="42.91365619579279" lon="13.184627866522625"><ele>1782.0</ele><time>2026-03-28T11:31:45Z</time></trkpt><trkpt lat="42.91358548775477" lon="13.184608384982765"><ele>1782.0</ele><time>2026-03-28T11:31:46Z</time></trkpt><trkpt lat="42.913510341124415" lon="13.184620211019382"><ele>1782.0</ele><time>2026-03-28T11:31:47Z</time></trkpt><trkpt lat="42.91344067821149" lon="13.184623253264931"><ele>1782.0</ele><time>2026-03-28T11:31:48Z</time></trkpt><trkpt lat="42.913372454700934" lon="13.184582238458997"><ele>1782.1428571428573</ele><time>2026-03-28T11:31:49Z</time></trkpt><trkpt lat="42.91330880309285" lon="13.184608909710843"><ele>1782.2857142857142</ele><time>2026-03-28T11:31:50Z</time></trkpt><trkpt lat="42.91324505859275" lon="13.18464009207976"><ele>1782.4285714285716</ele><time>2026-03-28T11:31:51Z</time></trkpt><trkpt lat="42.91317821866052" lon="13.184662341812283"><ele>1782.5714285714287</ele><time>2026-03-28T11:31:52Z</time></trkpt><trkpt lat="42.91311800659717" lon="13.184688422328298"><ele>1782.7142857142858</ele><time>2026-03-28T11:31:53Z</time></trkpt><trkpt lat="42.913028177171704" lon="13.184769254098095"><ele>1782.857142857143</ele><time>2026-03-28T11:31:55Z</time></trkpt><trkpt lat="42.912979975784225" lon="13.184842438910009"><ele>1783.0</ele><time>2026-03-28T11:31:57Z</time></trkpt><trkpt lat="42.9129343084203" lon="13.184901974455844"><ele>1779.8333333333335</ele><time>2026-03-28T11:32:03Z</time></trkpt><trkpt lat="42.91284639236352" lon="13.184779314920453"><ele>1776.6666666666667</ele><time>2026-03-28T11:36:53.999Z</time></trkpt><trkpt lat="42.912777086714414" lon="13.18477243320398"><ele>1773.5</ele><time>2026-03-28T11:36:54.999Z</time></trkpt><trkpt lat="42.91272082356541" lon="13.1847266597675"><ele>1770.3333333333335</ele><time>2026-03-28T11:36:55.999Z</time></trkpt><trkpt lat="42.91264391036033" lon="13.184732349240118"><ele>1767.1666666666667</ele><time>2026-03-28T11:36:56.999Z</time></trkpt><trkpt lat="42.91259569612515" lon="13.184659702162781"><ele>1764.0</ele><time>2026-03-28T11:36:57.999Z</time></trkpt><trkpt lat="42.91253522305077" lon="13.18459335447808"><ele>1758.5</ele><time>2026-03-28T11:36:58.999Z</time></trkpt><trkpt lat="42.91249542964804" lon="13.184434450442719"><ele>1753.0</ele><time>2026-03-28T11:37:00.999Z</time></trkpt><trkpt lat="42.91237009466226" lon="13.184393560273731"><ele>1747.5</ele><time>2026-03-28T11:37:02.999Z</time></trkpt><trkpt lat="42.91227701542334" lon="13.18427594044947"><ele>1742.0</ele><time>2026-03-28T11:37:04.999Z</time></trkpt><trkpt lat="42.91221676041763" lon="13.18422363674075"><ele>1741.9999999999998</ele><time>2026-03-28T11:37:05.999Z</time></trkpt><trkpt lat="42.91226592513895" lon="13.184160783195304"><ele>1742.0</ele><time>2026-03-28T11:37:28.999Z</time></trkpt><trkpt lat="42.91231009344925" lon="13.184052413624107"><ele>1742.0</ele><time>2026-03-28T11:38:22Z</time></trkpt><trkpt lat="42.91232140368263" lon="13.183946633230578"><ele>1742.0</ele><time>2026-03-28T11:38:23Z</time></trkpt><trkpt lat="42.9123370888874" lon="13.183830599930388"><ele>1741.9999999999998</ele><time>2026-03-28T11:38:24Z</time></trkpt><trkpt lat="42.91234409895507" lon="13.183712036840177"><ele>1742.0</ele><time>2026-03-28T11:38:25Z</time></trkpt><trkpt lat="42.91235068845778" lon="13.183594334651817"><ele>1738.3999999999999</ele><time>2026-03-28T11:38:26Z</time></trkpt><trkpt lat="42.91236328429074" lon="13.183461941714365"><ele>1734.7999999999997</ele><time>2026-03-28T11:38:27Z</time></trkpt><trkpt lat="42.91236843138919" lon="13.183311753622739"><ele>1731.2</ele><time>2026-03-28T11:38:28Z</time></trkpt><trkpt lat="42.91235037070829" lon="13.183161729214454"><ele>1727.6</ele><time>2026-03-28T11:38:29Z</time></trkpt><trkpt lat="42.91237670737288" lon="13.183022313488374"><ele>1724.0</ele><time>2026-03-28T11:38:30Z</time></trkpt><trkpt lat="42.91240469735016" lon="13.18288419244277"><ele>1720.2</ele><time>2026-03-28T11:38:31Z</time></trkpt><trkpt lat="42.91241598959535" lon="13.182749700407026"><ele>1716.4</ele><time>2026-03-28T11:38:32Z</time></trkpt><trkpt lat="42.912459557853424" lon="13.18262344224484"><ele>1712.6</ele><time>2026-03-28T11:38:33Z</time></trkpt><trkpt lat="42.91247118381846" lon="13.182481833188723"><ele>1708.8</ele><time>2026-03-28T11:38:34Z</time></trkpt><trkpt lat="42.91247700961919" lon="13.18234049466769"><ele>1705.0</ele><time>2026-03-28T11:38:35Z</time></trkpt><trkpt lat="42.91251985910659" lon="13.182208234908412"><ele>1702.2</ele><time>2026-03-28T11:38:36Z</time></trkpt><trkpt lat="42.91253797655177" lon="13.182067075882916"><ele>1699.4</ele><time>2026-03-28T11:38:37Z</time></trkpt><trkpt lat="42.912538417188166" lon="13.181918168394192"><ele>1696.6</ele><time>2026-03-28T11:38:38Z</time></trkpt><trkpt lat="42.91256159908129" lon="13.1817817218672"><ele>1693.8</ele><time>2026-03-28T11:38:39Z</time></trkpt><trkpt lat="42.91258556904534" lon="13.181653185442725"><ele>1691.0</ele><time>2026-03-28T11:38:39.999Z</time></trkpt><trkpt lat="42.912576855376926" lon="13.18153238110846"><ele>1682.8333333333333</ele><time>2026-03-28T11:38:40.999Z</time></trkpt><trkpt lat="42.91258645112355" lon="13.181411362032229"><ele>1674.6666666666665</ele><time>2026-03-28T11:38:41.999Z</time></trkpt><trkpt lat="42.912601064002935" lon="13.18128767681119"><ele>1666.5</ele><time>2026-03-28T11:38:42.999Z</time></trkpt><trkpt lat="42.91262037239715" lon="13.18116762395247"><ele>1658.3333333333335</ele><time>2026-03-28T11:38:43.999Z</time></trkpt><trkpt lat="42.91264160592762" lon="13.181048102296675"><ele>1650.1666666666667</ele><time>2026-03-28T11:38:44.999Z</time></trkpt><trkpt lat="42.912659413805166" lon="13.18093353114593"><ele>1642.0</ele><time>2026-03-28T11:38:45.999Z</time></trkpt><trkpt lat="42.91267313025925" lon="13.180819916085433"><ele>1642.0</ele><time>2026-03-28T11:38:46.999Z</time></trkpt><trkpt lat="42.912678298353356" lon="13.180714418915825"><ele>1642.0</ele><time>2026-03-28T11:38:47.999Z</time></trkpt><trkpt lat="42.91268503853242" lon="13.180622379418137"><ele>1642.0</ele><time>2026-03-28T11:38:48.999Z</time></trkpt><trkpt lat="42.912701810717266" lon="13.180451602158843"><ele>1642.0</ele><time>2026-03-28T11:38:50.999Z</time></trkpt><trkpt lat="42.912685283087164" lon="13.180339764379655"><ele>1642.0</ele><time>2026-03-28T11:38:52.999Z</time></trkpt><trkpt lat="42.91277979735648" lon="13.180372225824783"><ele>1641.0</ele><time>2026-03-28T11:42:19Z</time></trkpt><trkpt lat="42.91288365642306" lon="13.180454901320157"><ele>1640.0</ele><time>2026-03-28T11:42:21Z</time></trkpt><trkpt lat="42.91296704398893" lon="13.180496223065653"><ele>1639.0</ele><time>2026-03-28T11:42:22Z</time></trkpt><trkpt lat="42.91303536555398" lon="13.180545916507649"><ele>1638.0</ele><time>2026-03-28T11:42:23Z</time></trkpt><trkpt lat="42.91310603525772" lon="13.180616492084335"><ele>1637.0</ele><time>2026-03-28T11:42:24Z</time></trkpt><trkpt lat="42.91319670184433" lon="13.180614957330816"><ele>1636.9999999999998</ele><time>2026-03-28T11:42:25Z</time></trkpt><trkpt lat="42.91327587743345" lon="13.180625930421158"><ele>1637.0</ele><time>2026-03-28T11:42:26Z</time></trkpt><trkpt lat="42.913338384061355" lon="13.180605481722317"><ele>1637.0</ele><time>2026-03-28T11:42:27Z</time></trkpt><trkpt lat="42.91340826782895" lon="13.180593350857048"><ele>1637.0</ele><time>2026-03-28T11:42:28Z</time></trkpt><trkpt lat="42.913434816662914" lon="13.180506212472057"><ele>1636.9999999999998</ele><time>2026-03-28T11:42:29Z</time></trkpt><trkpt lat="42.913488154576775" lon="13.1804325613379"><ele>1637.0</ele><time>2026-03-28T11:42:38Z</time></trkpt><trkpt lat="42.913617113018994" lon="13.180458839188653"><ele>1633.4999999999998</ele><time>2026-03-28T11:42:40Z</time></trkpt><trkpt lat="42.913704833257576" lon="13.180460855491184"><ele>1630.0</ele><time>2026-03-28T11:42:41Z</time></trkpt><trkpt lat="42.91378269072935" lon="13.180453374042145"><ele>1626.5</ele><time>2026-03-28T11:42:42Z</time></trkpt><trkpt lat="42.913857772878345" lon="13.180440494799702"><ele>1623.0</ele><time>2026-03-28T11:42:43Z</time></trkpt><trkpt lat="42.913957220721144" lon="13.180425696362587"><ele>1619.4999999999998</ele><time>2026-03-28T11:42:45Z</time></trkpt><trkpt lat="42.91398475284956" lon="13.180284887226982"><ele>1616.0</ele><time>2026-03-28T11:43:39.999Z</time></trkpt><trkpt lat="42.91398031940195" lon="13.180187509776863"><ele>1615.9999999999998</ele><time>2026-03-28T11:43:40.999Z</time></trkpt><trkpt lat="42.91398815067571" lon="13.180039661587465"><ele>1616.0</ele><time>2026-03-28T11:43:41.999Z</time></trkpt><trkpt lat="42.91398928085729" lon="13.179922813607678"><ele>1616.0</ele><time>2026-03-28T11:43:42.999Z</time></trkpt><trkpt lat="42.91399895773608" lon="13.179814167281686"><ele>1616.0</ele><time>2026-03-28T11:43:43.999Z</time></trkpt><trkpt lat="42.91400505632163" lon="13.179710551338841"><ele>1615.9999999999998</ele><time>2026-03-28T11:43:44.999Z</time></trkpt><trkpt lat="42.91402921643451" lon="13.179618776361625"><ele>1616.0</ele><time>2026-03-28T11:43:45.999Z</time></trkpt><trkpt lat="42.91405412761532" lon="13.179534435854247"><ele>1615.6666666666665</ele><time>2026-03-28T11:43:46.999Z</time></trkpt><trkpt lat="42.91406243886753" lon="13.179445148723499"><ele>1615.3333333333333</ele><time>2026-03-28T11:43:47.999Z</time></trkpt><trkpt lat="42.914115991960024" lon="13.179334460601634"><ele>1615.0</ele><time>2026-03-28T11:43:49.999Z</time></trkpt><trkpt lat="42.91412745742185" lon="13.179243151251427"><ele>1614.6666666666665</ele><time>2026-03-28T11:43:52Z</time></trkpt><trkpt lat="42.91413128464031" lon="13.179141829558072"><ele>1614.3333333333333</ele><time>2026-03-28T11:43:55Z</time></trkpt><trkpt lat="42.91413525319104" lon="13.179038211469152"><ele>1614.0</ele><time>2026-03-28T11:43:58Z</time></trkpt><trkpt lat="42.91416467872441" lon="13.178941422966604"><ele>1612.3333333333333</ele><time>2026-03-28T11:44:01Z</time></trkpt><trkpt lat="42.91417982836759" lon="13.178833305093177"><ele>1610.6666666666665</ele><time>2026-03-28T11:44:04Z</time></trkpt><trkpt lat="42.914212900265746" lon="13.178722810307592"><ele>1609.0</ele><time>2026-03-28T11:44:07Z</time></trkpt><trkpt lat="42.914216236317195" lon="13.178612183570932"><ele>1607.3333333333333</ele><time>2026-03-28T11:44:09Z</time></trkpt><trkpt lat="42.914196702122325" lon="13.178529517813312"><ele>1605.6666666666665</ele><time>2026-03-28T11:44:10Z</time></trkpt><trkpt lat="42.91420374965121" lon="13.178427858317201"><ele>1604.0</ele><time>2026-03-28T11:44:13Z</time></trkpt><trkpt lat="42.914179570263656" lon="13.178340776513163"><ele>1603.9999999999998</ele><time>2026-03-28T11:44:16Z</time></trkpt><trkpt lat="42.91419611024885" lon="13.17825593952656"><ele>1604.0</ele><time>2026-03-28T11:44:32Z</time></trkpt><trkpt lat="42.914202802757345" lon="13.17814738044665"><ele>1604.0</ele><time>2026-03-28T11:47:02Z</time></trkpt><trkpt lat="42.91422547110073" lon="13.178058283899865"><ele>1604.0</ele><time>2026-03-28T11:47:04Z</time></trkpt><trkpt lat="42.914253109092186" lon="13.177924523079561"><ele>1603.9999999999998</ele><time>2026-03-28T11:47:06Z</time></trkpt><trkpt lat="42.91429605449501" lon="13.177761760736605"><ele>1604.0</ele><time>2026-03-28T11:47:08Z</time></trkpt><trkpt lat="42.91434184732544" lon="13.177603390743943"><ele>1596.142857142857</ele><time>2026-03-28T11:47:10Z</time></trkpt><trkpt lat="42.914362896874216" lon="13.177521481908677"><ele>1588.2857142857142</ele><time>2026-03-28T11:47:11Z</time></trkpt><trkpt lat="42.91438776193698" lon="13.1774336251618"><ele>1580.4285714285716</ele><time>2026-03-28T11:47:12Z</time></trkpt><trkpt lat="42.91441418050392" lon="13.177350471544521"><ele>1572.5714285714284</ele><time>2026-03-28T11:47:13Z</time></trkpt><trkpt lat="42.91443601362906" lon="13.177262883337004"><ele>1564.7142857142856</ele><time>2026-03-28T11:47:14Z</time></trkpt><trkpt lat="42.91446528607899" lon="13.177173623939803"><ele>1556.857142857143</ele><time>2026-03-28T11:47:15Z</time></trkpt><trkpt lat="42.914483581440436" lon="13.177080484379902"><ele>1549.0</ele><time>2026-03-28T11:47:16Z</time></trkpt><trkpt lat="42.914505611187764" lon="13.176990818697044"><ele>1549.0</ele><time>2026-03-28T11:47:17Z</time></trkpt><trkpt lat="42.914512710439034" lon="13.17690006341342"><ele>1549.0</ele><time>2026-03-28T11:47:18Z</time></trkpt><trkpt lat="42.914527398907225" lon="13.176744865359263"><ele>1549.0</ele><time>2026-03-28T11:47:20Z</time></trkpt><trkpt lat="42.91455554975087" lon="13.176600525444899"><ele>1549.0</ele><time>2026-03-28T11:47:22Z</time></trkpt><trkpt lat="42.91456492025095" lon="13.176460539746495"><ele>1549.0</ele><time>2026-03-28T11:47:24Z</time></trkpt><trkpt lat="42.91457288010701" lon="13.176336632343755"><ele>1548.8333333333335</ele><time>2026-03-28T11:47:26Z</time></trkpt><trkpt lat="42.9145930086302" lon="13.176223325355776"><ele>1548.6666666666667</ele><time>2026-03-28T11:47:29Z</time></trkpt><trkpt lat="42.91463846339426" lon="13.176107655287955"><ele>1548.5</ele><time>2026-03-28T11:47:31Z</time></trkpt><trkpt lat="42.91470870560659" lon="13.176013293430533"><ele>1548.3333333333335</ele><time>2026-03-28T11:47:32Z</time></trkpt><trkpt lat="42.91473200579722" lon="13.175911856296942"><ele>1548.1666666666667</ele><time>2026-03-28T11:47:33Z</time></trkpt><trkpt lat="42.91475406967399" lon="13.175818698733623"><ele>1548.0</ele><time>2026-03-28T11:47:34Z</time></trkpt><trkpt lat="42.91473898987061" lon="13.175698401946619"><ele>1546.6666666666667</ele><time>2026-03-28T11:47:36Z</time></trkpt><trkpt lat="42.91470477779633" lon="13.175619305702554"><ele>1545.3333333333335</ele><time>2026-03-28T11:48:20Z</time></trkpt><trkpt lat="42.91471225896549" lon="13.17552128916109"><ele>1544.0</ele><time>2026-03-28T11:48:30Z</time></trkpt><trkpt lat="42.91472903296179" lon="13.175430431540104"><ele>1542.6666666666667</ele><time>2026-03-28T11:48:35Z</time></trkpt><trkpt lat="42.914766170464695" lon="13.175321868678505"><ele>1541.3333333333335</ele><time>2026-03-28T11:48:38Z</time></trkpt><trkpt lat="42.914790217723755" lon="13.175209597556735"><ele>1540.0</ele><time>2026-03-28T11:48:40Z</time></trkpt><trkpt lat="42.91479230117989" lon="13.175099657107882"><ele>1540.0000000000002</ele><time>2026-03-28T11:48:43Z</time></trkpt><trkpt lat="42.91480883873485" lon="13.174985327627416"><ele>1540.0</ele><time>2026-03-28T11:48:47Z</time></trkpt><trkpt lat="42.91483275554816" lon="13.174868572311127"><ele>1540.0</ele><time>2026-03-28T11:48:50Z</time></trkpt><trkpt lat="42.914853437143954" lon="13.174739552405603"><ele>1540.0</ele><time>2026-03-28T11:48:53Z</time></trkpt><trkpt lat="42.9148707697131" lon="13.174642593325155"><ele>1540.0000000000002</ele><time>2026-03-28T11:48:55Z</time></trkpt><trkpt lat="42.914889900838205" lon="13.174533762663751"><ele>1540.0</ele><time>2026-03-28T11:48:57Z</time></trkpt><trkpt lat="42.914888211036995" lon="13.174437947286915"><ele>1539.8333333333335</ele><time>2026-03-28T11:48:59.999Z</time></trkpt><trkpt lat="42.91490318690256" lon="13.174344408839229"><ele>1539.6666666666667</ele><time>2026-03-28T11:49:02.999Z</time></trkpt><trkpt lat="42.91492009143579" lon="13.17423081517346"><ele>1539.5</ele><time>2026-03-28T11:49:05.999Z</time></trkpt><trkpt lat="42.91492496077816" lon="13.174133247884845"><ele>1539.3333333333335</ele><time>2026-03-28T11:49:08.999Z</time></trkpt><trkpt lat="42.91493388480721" lon="13.174043288149736"><ele>1539.1666666666667</ele><time>2026-03-28T11:49:11.999Z</time></trkpt><trkpt lat="42.91494666582895" lon="13.173942454926497"><ele>1539.0</ele><time>2026-03-28T11:49:14.999Z</time></trkpt><trkpt lat="42.91495854180443" lon="13.173816735742262"><ele>1539.0</ele><time>2026-03-28T11:49:17.999Z</time></trkpt><trkpt lat="42.91496458021305" lon="13.17371186794711"><ele>1539.0</ele><time>2026-03-28T11:49:20.999Z</time></trkpt><trkpt lat="42.91498858589351" lon="13.173609637645615"><ele>1539.0</ele><time>2026-03-28T11:49:23.999Z</time></trkpt><trkpt lat="42.91501817152905" lon="13.17350046987022"><ele>1539.0</ele><time>2026-03-28T11:49:25.999Z</time></trkpt><trkpt lat="42.91502510574747" lon="13.173390367994715"><ele>1539.0</ele><time>2026-03-28T11:49:27.999Z</time></trkpt><trkpt lat="42.91502627953732" lon="13.173286474629588"><ele>1539.0</ele><time>2026-03-28T11:49:30.999Z</time></trkpt><trkpt lat="42.91503372376752" lon="13.173188964611507"><ele>1537.5</ele><time>2026-03-28T11:49:33.999Z</time></trkpt><trkpt lat="42.91503938375456" lon="13.173065340365945"><ele>1536.0</ele><time>2026-03-28T11:49:36.999Z</time></trkpt><trkpt lat="42.91502682064632" lon="13.172954464466233"><ele>1534.5</ele><time>2026-03-28T11:49:39.999Z</time></trkpt><trkpt lat="42.91501541884828" lon="13.172845674083646"><ele>1533.0</ele><time>2026-03-28T11:49:42.999Z</time></trkpt><trkpt lat="42.914986136869146" lon="13.172733826049681"><ele>1531.5</ele><time>2026-03-28T11:49:45.999Z</time></trkpt><trkpt lat="42.91494929723976" lon="13.172647711925087"><ele>1530.0</ele><time>2026-03-28T11:49:49.999Z</time></trkpt><trkpt lat="42.91494202245482" lon="13.172560183065467"><ele>1530.0</ele><time>2026-03-28T11:54:35Z</time></trkpt><trkpt lat="42.91493239677033" lon="13.17243062159491"><ele>1530.0</ele><time>2026-03-28T11:54:37Z</time></trkpt><trkpt lat="42.91493721737901" lon="13.172332183066052"><ele>1530.0</ele><time>2026-03-28T11:54:39Z</time></trkpt><trkpt lat="42.914945776412644" lon="13.172217474217538"><ele>1530.0</ele><time>2026-03-28T11:54:44Z</time></trkpt><trkpt lat="42.914945487986614" lon="13.172127367008207"><ele>1530.0</ele><time>2026-03-28T11:54:53Z</time></trkpt><trkpt lat="42.914954852034256" lon="13.172037692841391"><ele>1530.0</ele><time>2026-03-28T11:55:06Z</time></trkpt><trkpt lat="42.914953131584404" lon="13.171946488495273"><ele>1529.857142857143</ele><time>2026-03-28T11:55:14Z</time></trkpt><trkpt lat="42.914961919916905" lon="13.171853439514758"><ele>1529.7142857142858</ele><time>2026-03-28T11:55:23Z</time></trkpt><trkpt lat="42.91497318639749" lon="13.171764225474988"><ele>1529.5714285714284</ele><time>2026-03-28T11:55:34Z</time></trkpt><trkpt lat="42.91499673823352" lon="13.171681801123036"><ele>1529.4285714285716</ele><time>2026-03-28T11:55:41Z</time></trkpt><trkpt lat="42.914994805252704" lon="13.17159347420514"><ele>1529.2857142857142</ele><time>2026-03-28T11:55:51Z</time></trkpt><trkpt lat="42.914976539955006" lon="13.171511041648005"><ele>1529.142857142857</ele><time>2026-03-28T11:56:01Z</time></trkpt><trkpt lat="42.914941852937915" lon="13.171438995308204"><ele>1529.0</ele><time>2026-03-28T11:56:25.999Z</time></trkpt><trkpt lat="42.914947524475984" lon="13.171346413472854"><ele>1529.3333333333335</ele><time>2026-03-28T11:56:38.999Z</time></trkpt><trkpt lat="42.91497108040204" lon="13.17126372714465"><ele>1529.6666666666667</ele><time>2026-03-28T11:56:48.999Z</time></trkpt><trkpt lat="42.91501111989785" lon="13.171185924434091"><ele>1530.0</ele><time>2026-03-28T11:56:50.999Z</time></trkpt><trkpt lat="42.915043833953376" lon="13.171064094870585"><ele>1530.3333333333333</ele><time>2026-03-28T11:56:52.999Z</time></trkpt><trkpt lat="42.915072570637086" lon="13.170941845924093"><ele>1530.6666666666665</ele><time>2026-03-28T11:56:54.999Z</time></trkpt><trkpt lat="42.915095795704445" lon="13.17082118756591"><ele>1531.0</ele><time>2026-03-28T11:56:56.999Z</time></trkpt><trkpt lat="42.915140834246316" lon="13.170711135353985"><ele>1526.1999999999998</ele><time>2026-03-28T11:56:58.999Z</time></trkpt><trkpt lat="42.91520226047111" lon="13.170602826054365"><ele>1521.3999999999999</ele><time>2026-03-28T11:57:00.999Z</time></trkpt><trkpt lat="42.9152388459331" lon="13.170521274424079"><ele>1516.6</ele><time>2026-03-28T11:57:02.999Z</time></trkpt><trkpt lat="42.915286983092926" lon="13.170420654735858"><ele>1511.8</ele><time>2026-03-28T11:57:04.999Z</time></trkpt><trkpt lat="42.91533928399538" lon="13.170315110367685"><ele>1507.0</ele><time>2026-03-28T11:57:06.999Z</time></trkpt><trkpt lat="42.915404995717054" lon="13.1701985281939"><ele>1507.0</ele><time>2026-03-28T11:57:08.999Z</time></trkpt><trkpt lat="42.91543677940789" lon="13.170123863026621"><ele>1507.0</ele><time>2026-03-28T11:57:09.999Z</time></trkpt><trkpt lat="42.91546421887711" lon="13.170033758341068"><ele>1507.0</ele><time>2026-03-28T11:57:10.999Z</time></trkpt><trkpt lat="42.91548929613964" lon="13.169953206486461"><ele>1507.0</ele><time>2026-03-28T11:57:11.999Z</time></trkpt><trkpt lat="42.9155155311307" lon="13.169873400934037"><ele>1507.0</ele><time>2026-03-28T11:57:12.999Z</time></trkpt><trkpt lat="42.915556761822856" lon="13.169794557994459"><ele>1507.0</ele><time>2026-03-28T11:57:13.999Z</time></trkpt><trkpt lat="42.91562683474179" lon="13.169748868883177"><ele>1507.0</ele><time>2026-03-28T11:57:14.999Z</time></trkpt><trkpt lat="42.91571782027414" lon="13.169633176373969"><ele>1506.3333333333333</ele><time>2026-03-28T11:57:16.999Z</time></trkpt><trkpt lat="42.91577836878707" lon="13.169598844746966"><ele>1505.6666666666665</ele><time>2026-03-28T11:57:17.999Z</time></trkpt><trkpt lat="42.91582821887837" lon="13.169533709823602"><ele>1505.0</ele><time>2026-03-28T11:57:18.999Z</time></trkpt><trkpt lat="42.9158550330526" lon="13.169446836388252"><ele>1504.3333333333333</ele><time>2026-03-28T11:57:19.999Z</time></trkpt><trkpt lat="42.915857569891884" lon="13.169347551635298"><ele>1503.6666666666667</ele><time>2026-03-28T11:57:20.999Z</time></trkpt><trkpt lat="42.91587484105138" lon="13.169171131929762"><ele>1503.0</ele><time>2026-03-28T11:57:22.999Z</time></trkpt><trkpt lat="42.915895829427434" lon="13.169074404403798"><ele>1499.5714285714284</ele><time>2026-03-28T11:57:23.999Z</time></trkpt><trkpt lat="42.915917263693466" lon="13.168970734848115"><ele>1496.1428571428573</ele><time>2026-03-28T11:57:24.999Z</time></trkpt><trkpt lat="42.91595467161854" lon="13.168898853199886"><ele>1492.7142857142858</ele><time>2026-03-28T11:57:25.999Z</time></trkpt><trkpt lat="42.916011222364965" lon="13.168786948298084"><ele>1489.2857142857142</ele><time>2026-03-28T11:57:27.999Z</time></trkpt><trkpt lat="42.91600197681689" lon="13.168699345607166"><ele>1485.8571428571427</ele><time>2026-03-28T11:57:28.999Z</time></trkpt><trkpt lat="42.916006361315986" lon="13.168609481345664"><ele>1482.4285714285716</ele><time>2026-03-28T11:57:29.999Z</time></trkpt><trkpt lat="42.91601987669073" lon="13.16851192527826"><ele>1479.0</ele><time>2026-03-28T11:57:30.999Z</time></trkpt><trkpt lat="42.91603752429994" lon="13.168414948871328"><ele>1479.0</ele><time>2026-03-28T11:57:31.999Z</time></trkpt><trkpt lat="42.916067647724944" lon="13.168310309717924"><ele>1479.0</ele><time>2026-03-28T11:57:32.999Z</time></trkpt><trkpt lat="42.9161392031276" lon="13.168257097470514"><ele>1479.0</ele><time>2026-03-28T11:57:33.999Z</time></trkpt><trkpt lat="42.91621394475183" lon="13.168181522234216"><ele>1479.0</ele><time>2026-03-28T11:57:34.999Z</time></trkpt><trkpt lat="42.91627653263931" lon="13.16806418501704"><ele>1479.0</ele><time>2026-03-28T11:57:35.999Z</time></trkpt><trkpt lat="42.916313835599254" lon="13.167912296664"><ele>1475.75</ele><time>2026-03-28T11:57:36.999Z</time></trkpt><trkpt lat="42.91637442088953" lon="13.167779405180546"><ele>1472.5</ele><time>2026-03-28T11:57:37.999Z</time></trkpt><trkpt lat="42.9164351132233" lon="13.167643586476588"><ele>1469.25</ele><time>2026-03-28T11:57:38.999Z</time></trkpt><trkpt lat="42.916505336927024" lon="13.167504962389062"><ele>1466.0</ele><time>2026-03-28T11:57:39.999Z</time></trkpt><trkpt lat="42.916616438820114" lon="13.167422136887508"><ele>1463.25</ele><time>2026-03-28T11:57:40.999Z</time></trkpt><trkpt lat="42.91669355988899" lon="13.167284681078575"><ele>1460.5</ele><time>2026-03-28T11:57:41.999Z</time></trkpt><trkpt lat="42.91671467767144" lon="13.167092038212163"><ele>1457.75</ele><time>2026-03-28T11:57:42.999Z</time></trkpt><trkpt lat="42.91679583095943" lon="13.166955168635626"><ele>1455.0</ele><time>2026-03-28T11:57:43.999Z</time></trkpt><trkpt lat="42.916931603852234" lon="13.166864177958407"><ele>1451.75</ele><time>2026-03-28T11:57:44.999Z</time></trkpt><trkpt lat="42.91699049514512" lon="13.166687138165516"><ele>1448.5</ele><time>2026-03-28T11:57:45.999Z</time></trkpt><trkpt lat="42.916977725806156" lon="13.166487792120583"><ele>1445.25</ele><time>2026-03-28T11:57:46.999Z</time></trkpt><trkpt lat="42.91696171610434" lon="13.166295808025348"><ele>1442.0</ele><time>2026-03-28T11:57:47.999Z</time></trkpt><trkpt lat="42.91695828643562" lon="13.166111035093893"><ele>1440.0</ele><time>2026-03-28T11:57:48.999Z</time></trkpt><trkpt lat="42.916961873832946" lon="13.165946218728019"><ele>1438.0</ele><time>2026-03-28T11:57:49.999Z</time></trkpt><trkpt lat="42.916971374901046" lon="13.165765483633782"><ele>1436.0</ele><time>2026-03-28T11:57:50.999Z</time></trkpt><trkpt lat="42.917019469403" lon="13.165614794067181"><ele>1434.0</ele><time>2026-03-28T11:57:51.999Z</time></trkpt><trkpt lat="42.91704143883543" lon="13.165476155828257"><ele>1432.5</ele><time>2026-03-28T11:57:52.999Z</time></trkpt><trkpt lat="42.917009512449056" lon="13.165363233391712"><ele>1431.0</ele><time>2026-03-28T11:57:53.999Z</time></trkpt><trkpt lat="42.91711354257922" lon="13.165272726830846"><ele>1429.5</ele><time>2026-03-28T11:57:55.999Z</time></trkpt><trkpt lat="42.917096132495445" lon="13.165172657840838"><ele>1428.0</ele><time>2026-03-28T11:57:57.999Z</time></trkpt><trkpt lat="42.91709633321157" lon="13.165069373905837"><ele>1426.5</ele><time>2026-03-28T11:58:36Z</time></trkpt><trkpt lat="42.91713285825393" lon="13.164970702494879"><ele>1425.0</ele><time>2026-03-28T11:58:38Z</time></trkpt><trkpt lat="42.91715461108699" lon="13.16486860120748"><ele>1423.6</ele><time>2026-03-28T11:58:40Z</time></trkpt><trkpt lat="42.9171667903782" lon="13.16474076488075"><ele>1422.2</ele><time>2026-03-28T11:58:42Z</time></trkpt><trkpt lat="42.91715469956668" lon="13.164605119449847"><ele>1420.8000000000002</ele><time>2026-03-28T11:58:44Z</time></trkpt><trkpt lat="42.91712606093927" lon="13.164485843068054"><ele>1419.4</ele><time>2026-03-28T11:58:46Z</time></trkpt><trkpt lat="42.91710311823976" lon="13.16437518155222"><ele>1418.0</ele><time>2026-03-28T11:58:48Z</time></trkpt><trkpt lat="42.91708667772861" lon="13.164261932973687"><ele>1418.0</ele><time>2026-03-28T11:58:50Z</time></trkpt><trkpt lat="42.91708757563562" lon="13.164135774843057"><ele>1418.0</ele><time>2026-03-28T11:58:52Z</time></trkpt><trkpt lat="42.917082583967904" lon="13.164022910420366"><ele>1418.0</ele><time>2026-03-28T11:58:54Z</time></trkpt><trkpt lat="42.917113582509884" lon="13.163920793011563"><ele>1418.0</ele><time>2026-03-28T11:58:56Z</time></trkpt><trkpt lat="42.917152659777905" lon="13.163805208251986"><ele>1418.0</ele><time>2026-03-28T11:58:58Z</time></trkpt><trkpt lat="42.917188487699995" lon="13.163677085177705"><ele>1417.0</ele><time>2026-03-28T11:59:00Z</time></trkpt><trkpt lat="42.917242560046674" lon="13.163572998342792"><ele>1416.0</ele><time>2026-03-28T11:59:02Z</time></trkpt><trkpt lat="42.9172973947589" lon="13.16347362876953"><ele>1415.0</ele><time>2026-03-28T11:59:04Z</time></trkpt><trkpt lat="42.9173613848421" lon="13.16338393135677"><ele>1414.0</ele><time>2026-03-28T11:59:06Z</time></trkpt><trkpt lat="42.91740331397418" lon="13.163264959400133"><ele>1413.0</ele><time>2026-03-28T11:59:08Z</time></trkpt><trkpt lat="42.91749179960595" lon="13.163136355965088"><ele>1411.1666666666667</ele><time>2026-03-28T11:59:10Z</time></trkpt><trkpt lat="42.91754754564923" lon="13.163064563337134"><ele>1409.3333333333333</ele><time>2026-03-28T11:59:11Z</time></trkpt><trkpt lat="42.91759943102163" lon="13.162976191265708"><ele>1407.5</ele><time>2026-03-28T11:59:12Z</time></trkpt><trkpt lat="42.91765106291571" lon="13.162882760359736"><ele>1405.6666666666665</ele><time>2026-03-28T11:59:13Z</time></trkpt><trkpt lat="42.91770494687717" lon="13.162777716834693"><ele>1403.8333333333333</ele><time>2026-03-28T11:59:14Z</time></trkpt><trkpt lat="42.91775082190688" lon="13.162670382636867"><ele>1402.0</ele><time>2026-03-28T11:59:15Z</time></trkpt><trkpt lat="42.91781920307403" lon="13.162527404725202"><ele>1398.8</ele><time>2026-03-28T11:59:16Z</time></trkpt><trkpt lat="42.91789055699919" lon="13.162393676568398"><ele>1395.6</ele><time>2026-03-28T11:59:17Z</time></trkpt><trkpt lat="42.9179710593202" lon="13.162267501308975"><ele>1392.3999999999999</ele><time>2026-03-28T11:59:18Z</time></trkpt><trkpt lat="42.91797564796253" lon="13.162155829166867"><ele>1389.1999999999998</ele><time>2026-03-28T11:59:19Z</time></trkpt><trkpt lat="42.917968554538305" lon="13.162041955994427"><ele>1386.0</ele><time>2026-03-28T11:59:20Z</time></trkpt><trkpt lat="42.91803204361795" lon="13.16200725716716"><ele>1383.1999999999998</ele><time>2026-03-28T11:59:21Z</time></trkpt><trkpt lat="42.9181154588523" lon="13.16199566346469"><ele>1380.3999999999999</ele><time>2026-03-28T11:59:22Z</time></trkpt><trkpt lat="42.91820736548225" lon="13.161952103759035"><ele>1377.6</ele><time>2026-03-28T11:59:23Z</time></trkpt><trkpt lat="42.918294983459845" lon="13.16189191461653"><ele>1374.8</ele><time>2026-03-28T11:59:24Z</time></trkpt><trkpt lat="42.91837620344669" lon="13.161790373511122"><ele>1372.0</ele><time>2026-03-28T11:59:25Z</time></trkpt><trkpt lat="42.918424040639984" lon="13.161655020628306"><ele>1366.3999999999999</ele><time>2026-03-28T11:59:26Z</time></trkpt><trkpt lat="42.91845728016573" lon="13.161522746575532"><ele>1360.8</ele><time>2026-03-28T11:59:27Z</time></trkpt><trkpt lat="42.918538520637554" lon="13.161489272427282"><ele>1355.2</ele><time>2026-03-28T11:59:28Z</time></trkpt><trkpt lat="42.918642841780986" lon="13.161467824398777"><ele>1349.6</ele><time>2026-03-28T11:59:29Z</time></trkpt><trkpt lat="42.918730193363196" lon="13.161388835436153"><ele>1344.0</ele><time>2026-03-28T11:59:30Z</time></trkpt><trkpt lat="42.918750420359835" lon="13.161264278220258"><ele>1344.0</ele><time>2026-03-28T11:59:31Z</time></trkpt><trkpt lat="42.91880109961168" lon="13.161153208296575"><ele>1344.0</ele><time>2026-03-28T11:59:32Z</time></trkpt><trkpt lat="42.918879246531574" lon="13.161167702132206"><ele>1344.0</ele><time>2026-03-28T11:59:33Z</time></trkpt><trkpt lat="42.91895836704978" lon="13.161134506262465"><ele>1344.0</ele><time>2026-03-28T11:59:34Z</time></trkpt><trkpt lat="42.918975261423405" lon="13.161026002146704"><ele>1344.0</ele><time>2026-03-28T11:59:35Z</time></trkpt><trkpt lat="42.918977569025685" lon="13.16093640250395"><ele>1344.0</ele><time>2026-03-28T11:59:36Z</time></trkpt><trkpt lat="42.919036300563484" lon="13.160874083129507"><ele>1344.0</ele><time>2026-03-28T11:59:37Z</time></trkpt><trkpt lat="42.91911592708174" lon="13.160829054883825"><ele>1344.0</ele><time>2026-03-28T11:59:38Z</time></trkpt><trkpt lat="42.919105393481146" lon="13.16073099584614"><ele>1344.0</ele><time>2026-03-28T11:59:39Z</time></trkpt><trkpt lat="42.91907257640011" lon="13.160647419097955"><ele>1344.0</ele><time>2026-03-28T11:59:40Z</time></trkpt><trkpt lat="42.919093498043274" lon="13.160478431120277"><ele>1344.0</ele><time>2026-03-28T11:59:42Z</time></trkpt><trkpt lat="42.91909487231324" lon="13.160328982159802"><ele>1343.1666666666667</ele><time>2026-03-28T11:59:44Z</time></trkpt><trkpt lat="42.91906621239508" lon="13.160204329810789"><ele>1342.3333333333333</ele><time>2026-03-28T11:59:46Z</time></trkpt><trkpt lat="42.9190202601497" lon="13.160125149937535"><ele>1341.5</ele><time>2026-03-28T11:59:48Z</time></trkpt><trkpt lat="42.918950335047725" lon="13.160055562244217"><ele>1340.6666666666665</ele><time>2026-03-28T11:59:51Z</time></trkpt><trkpt lat="42.918916934340956" lon="13.159969566283566"><ele>1339.8333333333333</ele><time>2026-03-28T11:59:56Z</time></trkpt><trkpt lat="42.918919918571554" lon="13.159868724740052"><ele>1339.0</ele><time>2026-03-28T12:03:11Z</time></trkpt><trkpt lat="42.918902301437555" lon="13.159998753652593"><ele>1339.0</ele><time>2026-03-28T12:06:24.999Z</time></trkpt><trkpt lat="42.918952334694055" lon="13.16007025511024"><ele>1339.0</ele><time>2026-03-28T12:06:28.999Z</time></trkpt><trkpt lat="42.918996577299396" lon="13.1601352512585"><ele>1339.0</ele><time>2026-03-28T12:06:32.999Z</time></trkpt><trkpt lat="42.9190401552928" lon="13.160213491392922"><ele>1339.0</ele><time>2026-03-28T12:06:37.999Z</time></trkpt><trkpt lat="42.91907482796714" lon="13.160310799900897"><ele>1339.0</ele><time>2026-03-28T12:06:43.999Z</time></trkpt><trkpt lat="42.91901847732082" lon="13.160224718026468"><ele>1339.0</ele><time>2026-03-28T12:07:08.999Z</time></trkpt><trkpt lat="42.91896081565086" lon="13.160187465787098"><ele>1339.0</ele><time>2026-03-28T12:07:56Z</time></trkpt><trkpt lat="42.91889586948287" lon="13.160287047506394"><ele>1339.0</ele><time>2026-03-28T12:08:58Z</time></trkpt><trkpt lat="42.91886058812575" lon="13.160371197995564"><ele>1339.0</ele><time>2026-03-28T12:09:04Z</time></trkpt><trkpt lat="42.91881216219425" lon="13.160493336422055"><ele>1339.0</ele><time>2026-03-28T12:09:07Z</time></trkpt><trkpt lat="42.91877748913154" lon="13.16057202466178"><ele>1339.0</ele><time>2026-03-28T12:09:09Z</time></trkpt><trkpt lat="42.918747858781096" lon="13.160658387843142"><ele>1339.0</ele><time>2026-03-28T12:09:11Z</time></trkpt><trkpt lat="42.918703696724016" lon="13.160751535566394"><ele>1339.0</ele><time>2026-03-28T12:09:14Z</time></trkpt><trkpt lat="42.918658588861504" lon="13.160851625048215"><ele>1339.8333333333333</ele><time>2026-03-28T12:09:17Z</time></trkpt><trkpt lat="42.91861292219431" lon="13.160952915112038"><ele>1340.6666666666665</ele><time>2026-03-28T12:09:20Z</time></trkpt><trkpt lat="42.91856691914946" lon="13.16105233827015"><ele>1341.5</ele><time>2026-03-28T12:09:23Z</time></trkpt><trkpt lat="42.918522513981344" lon="13.161146108585436"><ele>1342.3333333333333</ele><time>2026-03-28T12:09:26Z</time></trkpt><trkpt lat="42.91847684132422" lon="13.161236307356205"><ele>1343.1666666666667</ele><time>2026-03-28T12:09:29Z</time></trkpt><trkpt lat="42.91843742658428" lon="13.161318771280081"><ele>1344.0</ele><time>2026-03-28T12:09:31Z</time></trkpt><trkpt lat="42.918402180933015" lon="13.16139300209843"><ele>1347.6666666666667</ele><time>2026-03-28T12:09:33Z</time></trkpt><trkpt lat="42.9183521064616" lon="13.161498612450936"><ele>1351.3333333333333</ele><time>2026-03-28T12:09:36Z</time></trkpt><trkpt lat="42.91831736140979" lon="13.161571359410456"><ele>1355.0</ele><time>2026-03-28T12:09:38Z</time></trkpt><trkpt lat="42.91826627961109" lon="13.161680662740318"><ele>1358.6666666666665</ele><time>2026-03-28T12:09:41Z</time></trkpt><trkpt lat="42.91823028256955" lon="13.161751780622506"><ele>1362.3333333333333</ele><time>2026-03-28T12:09:43Z</time></trkpt><trkpt lat="42.918178844938296" lon="13.161858969448824"><ele>1366.0</ele><time>2026-03-28T12:09:46Z</time></trkpt><trkpt lat="42.91813083392243" lon="13.161968556348983"><ele>1367.0</ele><time>2026-03-28T12:09:49Z</time></trkpt><trkpt lat="42.91809649962351" lon="13.16204211513929"><ele>1368.0</ele><time>2026-03-28T12:09:51Z</time></trkpt><trkpt lat="42.918046574971385" lon="13.162149891889811"><ele>1369.0</ele><time>2026-03-28T12:09:54Z</time></trkpt><trkpt lat="42.91799637624818" lon="13.162259656555644"><ele>1370.0</ele><time>2026-03-28T12:09:57Z</time></trkpt><trkpt lat="42.91794801053841" lon="13.162364586322767"><ele>1371.0</ele><time>2026-03-28T12:10:00Z</time></trkpt><trkpt lat="42.91789794379591" lon="13.16246996783055"><ele>1372.0</ele><time>2026-03-28T12:10:03Z</time></trkpt><trkpt lat="42.91784420282766" lon="13.16257575819486"><ele>1374.3333333333333</ele><time>2026-03-28T12:10:06Z</time></trkpt><trkpt lat="42.917811102586576" lon="13.162650495059621"><ele>1376.6666666666665</ele><time>2026-03-28T12:10:08Z</time></trkpt><trkpt lat="42.91777638347329" lon="13.16272427800757"><ele>1379.0</ele><time>2026-03-28T12:10:10Z</time></trkpt><trkpt lat="42.91772637665253" lon="13.16283455772467"><ele>1381.3333333333333</ele><time>2026-03-28T12:10:13Z</time></trkpt><trkpt lat="42.91769207273806" lon="13.162907767330667"><ele>1383.6666666666667</ele><time>2026-03-28T12:10:15Z</time></trkpt><trkpt lat="42.91764245166946" lon="13.16301397433337"><ele>1386.0</ele><time>2026-03-28T12:10:18Z</time></trkpt><trkpt lat="42.91759739899374" lon="13.163112077491391"><ele>1388.6666666666667</ele><time>2026-03-28T12:10:21Z</time></trkpt><trkpt lat="42.91755776835139" lon="13.163196151001493"><ele>1391.3333333333333</ele><time>2026-03-28T12:10:25Z</time></trkpt><trkpt lat="42.917520202156325" lon="13.163276952182848"><ele>1394.0</ele><time>2026-03-28T12:10:28Z</time></trkpt><trkpt lat="42.91747201400083" lon="13.163374076549184"><ele>1396.6666666666665</ele><time>2026-03-28T12:10:31Z</time></trkpt><trkpt lat="42.91743669829787" lon="13.163451019935666"><ele>1399.3333333333333</ele><time>2026-03-28T12:10:33Z</time></trkpt><trkpt lat="42.917386016144604" lon="13.163557361039699"><ele>1402.0</ele><time>2026-03-28T12:10:36Z</time></trkpt><trkpt lat="42.917352147772974" lon="13.16363015515476"><ele>1403.8333333333333</ele><time>2026-03-28T12:10:38Z</time></trkpt><trkpt lat="42.91730048500846" lon="13.163734838217364"><ele>1405.6666666666665</ele><time>2026-03-28T12:10:41Z</time></trkpt><trkpt lat="42.91726153052928" lon="13.16381753796013"><ele>1407.5</ele><time>2026-03-28T12:10:43Z</time></trkpt><trkpt lat="42.91721276985325" lon="13.163925536062603"><ele>1409.3333333333333</ele><time>2026-03-28T12:10:46Z</time></trkpt><trkpt lat="42.917176586414485" lon="13.163997522402097"><ele>1411.1666666666667</ele><time>2026-03-28T12:10:48Z</time></trkpt><trkpt lat="42.91714394070333" lon="13.16407642186703"><ele>1413.0</ele><time>2026-03-28T12:10:50Z</time></trkpt><trkpt lat="42.91709389327418" lon="13.16418444999936"><ele>1413.8333333333333</ele><time>2026-03-28T12:10:53Z</time></trkpt><trkpt lat="42.9170447658377" lon="13.164292484169124"><ele>1414.6666666666667</ele><time>2026-03-28T12:10:56Z</time></trkpt><trkpt lat="42.91700808866761" lon="13.164367999677753"><ele>1415.5</ele><time>2026-03-28T12:10:58Z</time></trkpt><trkpt lat="42.91695906455328" lon="13.164476596989612"><ele>1416.3333333333335</ele><time>2026-03-28T12:11:01Z</time></trkpt><trkpt lat="42.91690925823748" lon="13.164583296220904"><ele>1417.1666666666667</ele><time>2026-03-28T12:11:04Z</time></trkpt><trkpt lat="42.91687411805361" lon="13.164655092144306"><ele>1418.0</ele><time>2026-03-28T12:11:06Z</time></trkpt><trkpt lat="42.916838984436865" lon="13.164730741333331"><ele>1418.0</ele><time>2026-03-28T12:11:08Z</time></trkpt><trkpt lat="42.9167894492547" lon="13.164844684479895"><ele>1418.0</ele><time>2026-03-28T12:11:11.001Z</time></trkpt><trkpt lat="42.916736642471704" lon="13.164953486226002"><ele>1418.0</ele><time>2026-03-28T12:11:14.001Z</time></trkpt><trkpt lat="42.916684229879536" lon="13.16506131751334"><ele>1418.0</ele><time>2026-03-28T12:11:17.001Z</time></trkpt><trkpt lat="42.916634766639355" lon="13.165169920096497"><ele>1418.0</ele><time>2026-03-28T12:11:20.001Z</time></trkpt><trkpt lat="42.91658280667513" lon="13.165276155222687"><ele>1420.8333333333335</ele><time>2026-03-28T12:11:23.001Z</time></trkpt><trkpt lat="42.91653232444015" lon="13.165382704450014"><ele>1423.6666666666667</ele><time>2026-03-28T12:11:26.001Z</time></trkpt><trkpt lat="42.916497046659806" lon="13.16545942727233"><ele>1426.5</ele><time>2026-03-28T12:11:28.001Z</time></trkpt><trkpt lat="42.916462184422244" lon="13.165532628363584"><ele>1429.3333333333333</ele><time>2026-03-28T12:11:30.001Z</time></trkpt><trkpt lat="42.91641090037188" lon="13.165640475342263"><ele>1432.1666666666665</ele><time>2026-03-28T12:11:33Z</time></trkpt><trkpt lat="42.916376450600055" lon="13.165714566555998"><ele>1435.0</ele><time>2026-03-28T12:11:35Z</time></trkpt><trkpt lat="42.91632731410749" lon="13.165822273055937"><ele>1437.0</ele><time>2026-03-28T12:11:38Z</time></trkpt><trkpt lat="42.916275257817034" lon="13.165928719978067"><ele>1439.0</ele><time>2026-03-28T12:11:41Z</time></trkpt><trkpt lat="42.91622601602477" lon="13.166033872535984"><ele>1441.0</ele><time>2026-03-28T12:11:44Z</time></trkpt><trkpt lat="42.91617945865028" lon="13.166141500436458"><ele>1443.0</ele><time>2026-03-28T12:11:47Z</time></trkpt><trkpt lat="42.91614392699517" lon="13.166212979301765"><ele>1445.0</ele><time>2026-03-28T12:11:49Z</time></trkpt><trkpt lat="42.916093900093905" lon="13.166321080801088"><ele>1447.0</ele><time>2026-03-28T12:11:52Z</time></trkpt><trkpt lat="42.91604597031811" lon="13.166425577609823"><ele>1447.0</ele><time>2026-03-28T12:11:55Z</time></trkpt><trkpt lat="42.91601030592066" lon="13.166497929179885"><ele>1447.0</ele><time>2026-03-28T12:11:57Z</time></trkpt><trkpt lat="42.915961012973135" lon="13.16660437779996"><ele>1447.0</ele><time>2026-03-28T12:12:00Z</time></trkpt><trkpt lat="42.915910597746326" lon="13.166707847459612"><ele>1447.0</ele><time>2026-03-28T12:12:03.001Z</time></trkpt><trkpt lat="42.91585839690432" lon="13.166816301568531"><ele>1447.0</ele><time>2026-03-28T12:12:06.001Z</time></trkpt><trkpt lat="42.91581241917746" lon="13.166913894256561"><ele>1447.0</ele><time>2026-03-28T12:12:09.001Z</time></trkpt><trkpt lat="42.91577647654943" lon="13.166988065652484"><ele>1450.7142857142856</ele><time>2026-03-28T12:12:11.001Z</time></trkpt><trkpt lat="42.91574118920088" lon="13.167061993579471"><ele>1454.4285714285716</ele><time>2026-03-28T12:12:13.001Z</time></trkpt><trkpt lat="42.915705133913114" lon="13.167138667342774"><ele>1458.142857142857</ele><time>2026-03-28T12:12:15.001Z</time></trkpt><trkpt lat="42.91567058559959" lon="13.167211165840694"><ele>1461.8571428571427</ele><time>2026-03-28T12:12:17.001Z</time></trkpt><trkpt lat="42.915635883401315" lon="13.167285436611257"><ele>1465.5714285714284</ele><time>2026-03-28T12:12:19.001Z</time></trkpt><trkpt lat="42.91558451789853" lon="13.167393294633703"><ele>1469.2857142857142</ele><time>2026-03-28T12:12:22.001Z</time></trkpt><trkpt lat="42.91554821662819" lon="13.167467431368328"><ele>1473.0</ele><time>2026-03-28T12:12:24.001Z</time></trkpt><trkpt lat="42.915515568484984" lon="13.167541006489394"><ele>1475.0</ele><time>2026-03-28T12:12:26.001Z</time></trkpt><trkpt lat="42.91547984522261" lon="13.167612901701474"><ele>1477.0</ele><time>2026-03-28T12:12:28.001Z</time></trkpt><trkpt lat="42.915446512889616" lon="13.167685871622421"><ele>1479.0</ele><time>2026-03-28T12:12:30.001Z</time></trkpt><trkpt lat="42.91541177233993" lon="13.167758083118486"><ele>1481.0</ele><time>2026-03-28T12:12:32.001Z</time></trkpt><trkpt lat="42.91536179311029" lon="13.16786499860338"><ele>1483.0</ele><time>2026-03-28T12:12:35.001Z</time></trkpt><trkpt lat="42.915312913552356" lon="13.167972542394786"><ele>1485.0</ele><time>2026-03-28T12:12:38.001Z</time></trkpt><trkpt lat="42.915262302767374" lon="13.168079166248454"><ele>1485.0</ele><time>2026-03-28T12:12:41.001Z</time></trkpt><trkpt lat="42.915210729924475" lon="13.168184900066109"><ele>1485.0</ele><time>2026-03-28T12:12:44.001Z</time></trkpt><trkpt lat="42.91516009200273" lon="13.168291836102501"><ele>1485.0</ele><time>2026-03-28T12:12:47.001Z</time></trkpt><trkpt lat="42.91510979608803" lon="13.168398817723252"><ele>1485.0</ele><time>2026-03-28T12:12:50.001Z</time></trkpt><trkpt lat="42.91507047633341" lon="13.168484733936012"><ele>1485.0</ele><time>2026-03-28T12:12:53.001Z</time></trkpt><trkpt lat="42.915024650835136" lon="13.168582468122564"><ele>1485.0</ele><time>2026-03-28T12:12:56.001Z</time></trkpt><trkpt lat="42.914988274137144" lon="13.168655503515366"><ele>1488.5714285714287</ele><time>2026-03-28T12:12:58.001Z</time></trkpt><trkpt lat="42.91495401569392" lon="13.168732302946673"><ele>1492.1428571428573</ele><time>2026-03-28T12:13:00.001Z</time></trkpt><trkpt lat="42.91489917347044" lon="13.168839039925668"><ele>1495.7142857142858</ele><time>2026-03-28T12:13:03.001Z</time></trkpt><trkpt lat="42.91484781713041" lon="13.168947985857338"><ele>1499.2857142857142</ele><time>2026-03-28T12:13:06.001Z</time></trkpt><trkpt lat="42.914815881617876" lon="13.169022179309884"><ele>1502.857142857143</ele><time>2026-03-28T12:13:08.001Z</time></trkpt><trkpt lat="42.91477930164597" lon="13.169093180226696"><ele>1506.4285714285713</ele><time>2026-03-28T12:13:10.001Z</time></trkpt><trkpt lat="42.91474774136081" lon="13.169168217061623"><ele>1510.0</ele><time>2026-03-28T12:13:12.001Z</time></trkpt><trkpt lat="42.914695442506115" lon="13.169275776517816"><ele>1511.1666666666665</ele><time>2026-03-28T12:13:15.001Z</time></trkpt><trkpt lat="42.914661170152996" lon="13.169348236131551"><ele>1512.3333333333333</ele><time>2026-03-28T12:13:17.001Z</time></trkpt><trkpt lat="42.9146147448002" lon="13.169448443731817"><ele>1513.5</ele><time>2026-03-28T12:13:20.001Z</time></trkpt><trkpt lat="42.91457571387165" lon="13.16953260897919"><ele>1514.6666666666667</ele><time>2026-03-28T12:13:24.001Z</time></trkpt><trkpt lat="42.91454318859376" lon="13.169606737878134"><ele>1515.8333333333335</ele><time>2026-03-28T12:13:27.001Z</time></trkpt><trkpt lat="42.91448009906382" lon="13.169739377391489"><ele>1517.0</ele><time>2026-03-28T12:13:31.001Z</time></trkpt><trkpt lat="42.9144451149468" lon="13.169810946264137"><ele>1518.0</ele><time>2026-03-28T12:13:33.001Z</time></trkpt><trkpt lat="42.91441015495169" lon="13.169884820729841"><ele>1519.0</ele><time>2026-03-28T12:13:35.001Z</time></trkpt><trkpt lat="42.914375612792895" lon="13.169958992105517"><ele>1520.0</ele><time>2026-03-28T12:13:37.001Z</time></trkpt><trkpt lat="42.914341026257986" lon="13.17003099230678"><ele>1521.0</ele><time>2026-03-28T12:13:39.001Z</time></trkpt><trkpt lat="42.9143047995913" lon="13.170107644115559"><ele>1522.0</ele><time>2026-03-28T12:13:41.001Z</time></trkpt><trkpt lat="42.9142690158446" lon="13.170180563141674"><ele>1523.0</ele><time>2026-03-28T12:13:43.001Z</time></trkpt><trkpt lat="42.914236367388845" lon="13.170255179956609"><ele>1524.0</ele><time>2026-03-28T12:13:45.001Z</time></trkpt><trkpt lat="42.91419959017874" lon="13.170328595783582"><ele>1526.1666666666667</ele><time>2026-03-28T12:13:47.001Z</time></trkpt><trkpt lat="42.91415105891599" lon="13.170437283275502"><ele>1528.3333333333335</ele><time>2026-03-28T12:13:50.001Z</time></trkpt><trkpt lat="42.914098644102694" lon="13.170550117839092"><ele>1530.5</ele><time>2026-03-28T12:13:53Z</time></trkpt><trkpt lat="42.91406391230266" lon="13.17062227155432"><ele>1532.6666666666667</ele><time>2026-03-28T12:13:55Z</time></trkpt><trkpt lat="42.91402848856213" lon="13.17069860002694"><ele>1534.8333333333335</ele><time>2026-03-28T12:13:57Z</time></trkpt><trkpt lat="42.91397890962958" lon="13.170807788482486"><ele>1537.0</ele><time>2026-03-28T12:14:00Z</time></trkpt><trkpt lat="42.91394267093995" lon="13.170879026366604"><ele>1537.8333333333335</ele><time>2026-03-28T12:14:02Z</time></trkpt><trkpt lat="42.913912599786045" lon="13.17096131746609"><ele>1538.6666666666667</ele><time>2026-03-28T12:14:04Z</time></trkpt><trkpt lat="42.913855822744075" lon="13.17107466085837"><ele>1539.5</ele><time>2026-03-28T12:14:07Z</time></trkpt><trkpt lat="42.91380445639439" lon="13.171182015278701"><ele>1540.3333333333335</ele><time>2026-03-28T12:14:10Z</time></trkpt><trkpt lat="42.91376830027678" lon="13.171253736610677"><ele>1541.1666666666667</ele><time>2026-03-28T12:14:12Z</time></trkpt><trkpt lat="42.913727419843546" lon="13.171324621444597"><ele>1542.0</ele><time>2026-03-28T12:14:15Z</time></trkpt><trkpt lat="42.91368406375697" lon="13.171412952309895"><ele>1542.0</ele><time>2026-03-28T12:14:23Z</time></trkpt><trkpt lat="42.91363962470708" lon="13.171481158754911"><ele>1542.0</ele><time>2026-03-28T12:14:25Z</time></trkpt><trkpt lat="42.91356811047297" lon="13.171471343390067"><ele>1542.0</ele><time>2026-03-28T12:14:27Z</time></trkpt><trkpt lat="42.9135364528095" lon="13.171395893564775"><ele>1542.0</ele><time>2026-03-28T12:14:31Z</time></trkpt><trkpt lat="42.913501447944775" lon="13.171314851055264"><ele>1542.0</ele><time>2026-03-28T12:14:34Z</time></trkpt><trkpt lat="42.91350468648285" lon="13.171165245287803"><ele>1542.0</ele><time>2026-03-28T12:14:37Z</time></trkpt><trkpt lat="42.913572666359286" lon="13.171073580389868"><ele>1542.0</ele><time>2026-03-28T12:14:39Z</time></trkpt><trkpt lat="42.91357257664687" lon="13.170954098783753"><ele>1542.0</ele><time>2026-03-28T12:15:28.001Z</time></trkpt><trkpt lat="42.91366092275765" lon="13.170909059750038"><ele>1542.0</ele><time>2026-03-28T12:15:33.001Z</time></trkpt><trkpt lat="42.913759406138524" lon="13.1708544800855"><ele>1542.0</ele><time>2026-03-28T12:15:35.001Z</time></trkpt><trkpt lat="42.91385472773401" lon="13.170815924361118"><ele>1542.0</ele><time>2026-03-28T12:15:37.001Z</time></trkpt><trkpt lat="42.91395142119859" lon="13.170811587136704"><ele>1542.0</ele><time>2026-03-28T12:15:39.001Z</time></trkpt><trkpt lat="42.914042107663946" lon="13.170821992157064"><ele>1542.0</ele><time>2026-03-28T12:15:41.001Z</time></trkpt><trkpt lat="42.91413931148752" lon="13.17083884486711"><ele>1542.0</ele><time>2026-03-28T12:15:43.001Z</time></trkpt><trkpt lat="42.91423775812945" lon="13.170818850194472"><ele>1542.0</ele><time>2026-03-28T12:15:45.001Z</time></trkpt><trkpt lat="42.91435094238324" lon="13.170791323182042"><ele>1542.0</ele><time>2026-03-28T12:15:47.001Z</time></trkpt><trkpt lat="42.91445697356877" lon="13.170784295818644"><ele>1539.8</ele><time>2026-03-28T12:15:49.001Z</time></trkpt><trkpt lat="42.91456758292461" lon="13.170754041566182"><ele>1537.6</ele><time>2026-03-28T12:15:51.001Z</time></trkpt><trkpt lat="42.91468161117964" lon="13.170683510024476"><ele>1535.3999999999999</ele><time>2026-03-28T12:15:53.001Z</time></trkpt><trkpt lat="42.91473518111006" lon="13.170634845797085"><ele>1533.1999999999998</ele><time>2026-03-28T12:15:54.001Z</time></trkpt><trkpt lat="42.914838187487135" lon="13.170526514227618"><ele>1531.0</ele><time>2026-03-28T12:15:56.001Z</time></trkpt><trkpt lat="42.914889604812615" lon="13.170458724731922"><ele>1529.8333333333333</ele><time>2026-03-28T12:15:57.001Z</time></trkpt><trkpt lat="42.91494286644766" lon="13.170384652168028"><ele>1528.6666666666665</ele><time>2026-03-28T12:15:58.001Z</time></trkpt><trkpt lat="42.91498879197544" lon="13.170304058021177"><ele>1527.5</ele><time>2026-03-28T12:15:59.001Z</time></trkpt><trkpt lat="42.91503436416157" lon="13.170223846029595"><ele>1526.3333333333333</ele><time>2026-03-28T12:16:00Z</time></trkpt><trkpt lat="42.91507260595595" lon="13.170140661737083"><ele>1525.1666666666667</ele><time>2026-03-28T12:16:01Z</time></trkpt><trkpt lat="42.91511373332242" lon="13.170048073774689"><ele>1524.0</ele><time>2026-03-28T12:16:02Z</time></trkpt><trkpt lat="42.91515274309393" lon="13.169956281721234"><ele>1521.1666666666667</ele><time>2026-03-28T12:16:03Z</time></trkpt><trkpt lat="42.9151951961348" lon="13.169868405236203"><ele>1518.3333333333333</ele><time>2026-03-28T12:16:04Z</time></trkpt><trkpt lat="42.91523822848819" lon="13.169777925798194"><ele>1515.5</ele><time>2026-03-28T12:16:05Z</time></trkpt><trkpt lat="42.91528689841935" lon="13.169683517231904"><ele>1512.6666666666665</ele><time>2026-03-28T12:16:06Z</time></trkpt><trkpt lat="42.91535317960633" lon="13.169592280050189"><ele>1509.8333333333333</ele><time>2026-03-28T12:16:07Z</time></trkpt><trkpt lat="42.91542227190505" lon="13.169496027443989"><ele>1507.0</ele><time>2026-03-28T12:16:08Z</time></trkpt><trkpt lat="42.915470776959545" lon="13.169384643416434"><ele>1506.1999999999998</ele><time>2026-03-28T12:16:09Z</time></trkpt><trkpt lat="42.91552229168154" lon="13.169270115618607"><ele>1505.4</ele><time>2026-03-28T12:16:10Z</time></trkpt><trkpt lat="42.91557455018327" lon="13.169153748740674"><ele>1504.6</ele><time>2026-03-28T12:16:11Z</time></trkpt><trkpt lat="42.91562978532573" lon="13.169039514920623"><ele>1503.8000000000002</ele><time>2026-03-28T12:16:12Z</time></trkpt><trkpt lat="42.91567726857378" lon="13.168935329649905"><ele>1503.0</ele><time>2026-03-28T12:16:13Z</time></trkpt><trkpt lat="42.915738153400945" lon="13.168826886213477"><ele>1501.4</ele><time>2026-03-28T12:16:14Z</time></trkpt><trkpt lat="42.915791597588736" lon="13.168722856886152"><ele>1499.8000000000002</ele><time>2026-03-28T12:16:15Z</time></trkpt><trkpt lat="42.91584323608719" lon="13.168599138676004"><ele>1498.2</ele><time>2026-03-28T12:16:16Z</time></trkpt><trkpt lat="42.91591503840834" lon="13.168488831900676"><ele>1496.6</ele><time>2026-03-28T12:16:17Z</time></trkpt><trkpt lat="42.91596041696379" lon="13.168349952041865"><ele>1495.0</ele><time>2026-03-28T12:16:18Z</time></trkpt><trkpt lat="42.91602163419806" lon="13.168232385889695"><ele>1489.2</ele><time>2026-03-28T12:16:19Z</time></trkpt><trkpt lat="42.91605820239805" lon="13.168101803136896"><ele>1483.4</ele><time>2026-03-28T12:16:20Z</time></trkpt><trkpt lat="42.91612598741657" lon="13.167984484709855"><ele>1477.6</ele><time>2026-03-28T12:16:21Z</time></trkpt><trkpt lat="42.91617209688857" lon="13.167896168933497"><ele>1471.8</ele><time>2026-03-28T12:16:22Z</time></trkpt><trkpt lat="42.91619683501117" lon="13.16773445801842"><ele>1466.0</ele><time>2026-03-28T12:16:24Z</time></trkpt><trkpt lat="42.91623988337226" lon="13.167630277474432"><ele>1466.0</ele><time>2026-03-28T12:16:25Z</time></trkpt><trkpt lat="42.91630838979298" lon="13.167525771254514"><ele>1466.0</ele><time>2026-03-28T12:16:26Z</time></trkpt><trkpt lat="42.91638671859865" lon="13.167417750417888"><ele>1466.0</ele><time>2026-03-28T12:16:27Z</time></trkpt><trkpt lat="42.91646970986183" lon="13.16731319432693"><ele>1466.0</ele><time>2026-03-28T12:16:28Z</time></trkpt><trkpt lat="42.91654610327094" lon="13.167188964377987"><ele>1466.0</ele><time>2026-03-28T12:16:29Z</time></trkpt><trkpt lat="42.91661156765113" lon="13.167048385962916"><ele>1463.25</ele><time>2026-03-28T12:16:30Z</time></trkpt><trkpt lat="42.916667883556116" lon="13.166901255628453"><ele>1460.5</ele><time>2026-03-28T12:16:31Z</time></trkpt><trkpt lat="42.91673787608268" lon="13.16674029229178"><ele>1457.75</ele><time>2026-03-28T12:16:32Z</time></trkpt><trkpt lat="42.916801238016994" lon="13.16657684308727"><ele>1455.0</ele><time>2026-03-28T12:16:33Z</time></trkpt><trkpt lat="42.91686624991256" lon="13.166403049254503"><ele>1449.75</ele><time>2026-03-28T12:16:34Z</time></trkpt><trkpt lat="42.9169346047799" lon="13.166216553395525"><ele>1444.5</ele><time>2026-03-28T12:16:35Z</time></trkpt><trkpt lat="42.916992483658966" lon="13.166040736421731"><ele>1439.25</ele><time>2026-03-28T12:16:36Z</time></trkpt><trkpt lat="42.91703350921581" lon="13.165865651855004"><ele>1434.0</ele><time>2026-03-28T12:16:37Z</time></trkpt><trkpt lat="42.917071100009245" lon="13.165679879592872"><ele>1431.75</ele><time>2026-03-28T12:16:38Z</time></trkpt><trkpt lat="42.91710746343547" lon="13.165497332276813"><ele>1429.5</ele><time>2026-03-28T12:16:39Z</time></trkpt><trkpt lat="42.9171528654637" lon="13.165345849790627"><ele>1427.25</ele><time>2026-03-28T12:16:40Z</time></trkpt><trkpt lat="42.917226807472794" lon="13.16526019046686"><ele>1425.0</ele><time>2026-03-28T12:16:41Z</time></trkpt><trkpt lat="42.91725915027167" lon="13.165136487785514"><ele>1425.0</ele><time>2026-03-28T12:16:43Z</time></trkpt><trkpt lat="42.91732974812263" lon="13.165168644872423"><ele>1425.0</ele><time>2026-03-28T12:16:45Z</time></trkpt><trkpt lat="42.917396120609624" lon="13.165194631512067"><ele>1425.0</ele><time>2026-03-28T12:16:51Z</time></trkpt><trkpt lat="42.91743412041194" lon="13.165277727194752"><ele>1425.0</ele><time>2026-03-28T12:18:04Z</time></trkpt><trkpt lat="42.91740426182692" lon="13.165369681829636"><ele>1425.0</ele><time>2026-03-28T12:18:45Z</time></trkpt><trkpt lat="42.9173491909334" lon="13.165487202379872"><ele>1425.0</ele><time>2026-03-28T12:18:55Z</time></trkpt><trkpt lat="42.917304300693374" lon="13.165566664767788"><ele>1425.0000000000002</ele><time>2026-03-28T12:18:59Z</time></trkpt><trkpt lat="42.917264720916826" lon="13.165655999468289"><ele>1425.0</ele><time>2026-03-28T12:19:04Z</time></trkpt><trkpt lat="42.91722944590962" lon="13.165740396622418"><ele>1425.0</ele><time>2026-03-28T12:19:08Z</time></trkpt><trkpt lat="42.91718656996058" lon="13.165818438270215"><ele>1425.0</ele><time>2026-03-28T12:19:13Z</time></trkpt><trkpt lat="42.917148924293315" lon="13.165902120313536"><ele>1425.0</ele><time>2026-03-28T12:19:17Z</time></trkpt><trkpt lat="42.917112610841016" lon="13.165979058668363"><ele>1425.0000000000002</ele><time>2026-03-28T12:19:21Z</time></trkpt><trkpt lat="42.91707631066723" lon="13.166057549541318"><ele>1425.0</ele><time>2026-03-28T12:19:25Z</time></trkpt><trkpt lat="42.91704155753958" lon="13.166133475320393"><ele>1427.25</ele><time>2026-03-28T12:19:29Z</time></trkpt><trkpt lat="42.91700409307769" lon="13.166220776254368"><ele>1429.5</ele><time>2026-03-28T12:19:33Z</time></trkpt><trkpt lat="42.916962991529545" lon="13.166303727918171"><ele>1431.75</ele><time>2026-03-28T12:19:37.001Z</time></trkpt><trkpt lat="42.91692600577789" lon="13.166379398863558"><ele>1434.0</ele><time>2026-03-28T12:19:41.001Z</time></trkpt><trkpt lat="42.916717766721085" lon="13.166803994910543"><ele>1444.5</ele><time>2026-03-28T12:20:03Z</time></trkpt><trkpt lat="42.91664599112484" lon="13.166947362056485"><ele>1455.0</ele><time>2026-03-28T12:20:10Z</time></trkpt><trkpt lat="42.916442033476" lon="13.167374124590522"><ele>1458.6666666666667</ele><time>2026-03-28T12:20:32Z</time></trkpt><trkpt lat="42.91633685638049" lon="13.167583979036742"><ele>1462.3333333333335</ele><time>2026-03-28T12:20:43Z</time></trkpt><trkpt lat="42.916261513807875" lon="13.167749829274479"><ele>1466.0</ele><time>2026-03-28T12:20:50Z</time></trkpt><trkpt lat="42.916171716793166" lon="13.167939285177805"><ele>1466.0</ele><time>2026-03-28T12:20:59Z</time></trkpt><trkpt lat="42.91612284577916" lon="13.168037862905864"><ele>1466.0</ele><time>2026-03-28T12:21:04Z</time></trkpt><trkpt lat="42.91598589144438" lon="13.168321778122786"><ele>1466.0</ele><time>2026-03-28T12:21:18Z</time></trkpt><trkpt lat="42.91591725844564" lon="13.168464668530898"><ele>1471.8</ele><time>2026-03-28T12:21:25Z</time></trkpt><trkpt lat="42.915878014381924" lon="13.168546049453779"><ele>1477.6</ele><time>2026-03-28T12:21:29Z</time></trkpt><trkpt lat="42.915839634136724" lon="13.168627464035536"><ele>1483.4</ele><time>2026-03-28T12:21:34Z</time></trkpt><trkpt lat="42.91579575406691" lon="13.168720272447128"><ele>1489.2</ele><time>2026-03-28T12:21:39Z</time></trkpt><trkpt lat="42.915754967146206" lon="13.16880406213195"><ele>1495.0</ele><time>2026-03-28T12:21:42Z</time></trkpt><trkpt lat="42.915258333102365" lon="13.169842241940088"><ele>1497.4</ele><time>2026-03-28T12:22:33Z</time></trkpt><trkpt lat="42.91514650685584" lon="13.170069915521804"><ele>1499.8</ele><time>2026-03-28T12:22:44Z</time></trkpt><trkpt lat="42.91510986839291" lon="13.170157230335123"><ele>1502.1999999999998</ele><time>2026-03-28T12:22:48Z</time></trkpt><trkpt lat="42.91506821157252" lon="13.17024338262749"><ele>1504.6</ele><time>2026-03-28T12:22:52Z</time></trkpt><trkpt lat="42.91503569684152" lon="13.170324145263486"><ele>1507.0</ele><time>2026-03-28T12:22:56Z</time></trkpt><trkpt lat="42.91499402676597" lon="13.170413666158254"><ele>1509.4285714285716</ele><time>2026-03-28T12:23:00Z</time></trkpt><trkpt lat="42.914955456905005" lon="13.170495532374606"><ele>1511.8571428571427</ele><time>2026-03-28T12:23:04Z</time></trkpt><trkpt lat="42.91491849375198" lon="13.17057589720115"><ele>1514.2857142857142</ele><time>2026-03-28T12:23:08Z</time></trkpt><trkpt lat="42.91487986914544" lon="13.17065589227632"><ele>1516.7142857142858</ele><time>2026-03-28T12:23:12Z</time></trkpt><trkpt lat="42.91484097994366" lon="13.170738413466077"><ele>1519.1428571428573</ele><time>2026-03-28T12:23:16Z</time></trkpt><trkpt lat="42.91480288444656" lon="13.170818541288478"><ele>1521.5714285714284</ele><time>2026-03-28T12:23:20Z</time></trkpt><trkpt lat="42.91476334879635" lon="13.170900385464382"><ele>1524.0</ele><time>2026-03-28T12:23:24Z</time></trkpt><trkpt lat="42.914725399173356" lon="13.170982162594274"><ele>1524.7142857142856</ele><time>2026-03-28T12:23:28Z</time></trkpt><trkpt lat="42.914686418362685" lon="13.17106386875586"><ele>1525.4285714285716</ele><time>2026-03-28T12:23:31.999Z</time></trkpt><trkpt lat="42.91464575871806" lon="13.171148039620514"><ele>1526.142857142857</ele><time>2026-03-28T12:23:35.999Z</time></trkpt><trkpt lat="42.91460649075314" lon="13.171230802898036"><ele>1526.8571428571427</ele><time>2026-03-28T12:23:39.999Z</time></trkpt><trkpt lat="42.914566175453366" lon="13.171312945472367"><ele>1527.5714285714284</ele><time>2026-03-28T12:23:43.999Z</time></trkpt><trkpt lat="42.91452561333309" lon="13.17139294931913"><ele>1528.2857142857142</ele><time>2026-03-28T12:23:48Z</time></trkpt><trkpt lat="42.914485292541244" lon="13.171475709258239"><ele>1529.0</ele><time>2026-03-28T12:23:52Z</time></trkpt><trkpt lat="42.914444102095324" lon="13.171557291255452"><ele>1528.9999999999998</ele><time>2026-03-28T12:23:56Z</time></trkpt><trkpt lat="42.914405963824535" lon="13.171638595756386"><ele>1529.0</ele><time>2026-03-28T12:24:00Z</time></trkpt><trkpt lat="42.9143660470813" lon="13.171718133881855"><ele>1529.0</ele><time>2026-03-28T12:24:04Z</time></trkpt><trkpt lat="42.91432569955158" lon="13.171800152245071"><ele>1529.0</ele><time>2026-03-28T12:24:08Z</time></trkpt><trkpt lat="42.91428644062841" lon="13.17187662096466"><ele>1529.0</ele><time>2026-03-28T12:24:12Z</time></trkpt><trkpt lat="42.91424782956014" lon="13.171955919124203"><ele>1528.9999999999998</ele><time>2026-03-28T12:24:16Z</time></trkpt><trkpt lat="42.914209350075296" lon="13.172040104979551"><ele>1529.0</ele><time>2026-03-28T12:24:20Z</time></trkpt><trkpt lat="42.91417197600365" lon="13.172124161973302"><ele>1531.8571428571427</ele><time>2026-03-28T12:24:24Z</time></trkpt><trkpt lat="42.914133925452475" lon="13.172210699178528"><ele>1534.7142857142858</ele><time>2026-03-28T12:24:28Z</time></trkpt><trkpt lat="42.91409438887104" lon="13.172290591096006"><ele>1537.5714285714284</ele><time>2026-03-28T12:24:32Z</time></trkpt><trkpt lat="42.9140552358534" lon="13.17237244870891"><ele>1540.4285714285713</ele><time>2026-03-28T12:24:36Z</time></trkpt><trkpt lat="42.9140160904921" lon="13.172454268695946"><ele>1543.2857142857142</ele><time>2026-03-28T12:24:40Z</time></trkpt><trkpt lat="42.91397568495022" lon="13.172530585936359"><ele>1546.142857142857</ele><time>2026-03-28T12:24:44Z</time></trkpt><trkpt lat="42.91393829955" lon="13.172613795263311"><ele>1549.0</ele><time>2026-03-28T12:24:48Z</time></trkpt><trkpt lat="42.9139021891642" lon="13.172688627494686"><ele>1550.4285714285716</ele><time>2026-03-28T12:24:52Z</time></trkpt><trkpt lat="42.913866738887066" lon="13.172769663703441"><ele>1551.8571428571427</ele><time>2026-03-28T12:24:56Z</time></trkpt><trkpt lat="42.913831018096445" lon="13.172842610188496"><ele>1553.2857142857142</ele><time>2026-03-28T12:25:00Z</time></trkpt><trkpt lat="42.91379552187028" lon="13.17291736469892"><ele>1554.7142857142858</ele><time>2026-03-28T12:25:04Z</time></trkpt><trkpt lat="42.91376172442927" lon="13.172992316945548"><ele>1556.1428571428573</ele><time>2026-03-28T12:25:08Z</time></trkpt><trkpt lat="42.91372635476164" lon="13.173069893676717"><ele>1557.5714285714284</ele><time>2026-03-28T12:25:12Z</time></trkpt><trkpt lat="42.9136872726424" lon="13.173161119671708"><ele>1559.0</ele><time>2026-03-28T12:25:17Z</time></trkpt><trkpt lat="42.91365250079702" lon="13.17323418005229"><ele>1561.142857142857</ele><time>2026-03-28T12:25:20.999Z</time></trkpt><trkpt lat="42.91361779113165" lon="13.173307436834282"><ele>1563.2857142857144</ele><time>2026-03-28T12:25:24.999Z</time></trkpt><trkpt lat="42.91357475882405" lon="13.173396404117852"><ele>1565.4285714285716</ele><time>2026-03-28T12:25:29.999Z</time></trkpt><trkpt lat="42.91353938017945" lon="13.173469034340094"><ele>1567.5714285714284</ele><time>2026-03-28T12:25:33.999Z</time></trkpt><trkpt lat="42.91350047091851" lon="13.173547977651184"><ele>1569.7142857142858</ele><time>2026-03-28T12:25:37.999Z</time></trkpt><trkpt lat="42.91346288471051" lon="13.17362394567856"><ele>1571.857142857143</ele><time>2026-03-28T12:25:41.999Z</time></trkpt><trkpt lat="42.91342310566487" lon="13.17370220393737"><ele>1574.0</ele><time>2026-03-28T12:25:45.999Z</time></trkpt><trkpt lat="42.913384232622185" lon="13.173781906635739"><ele>1577.142857142857</ele><time>2026-03-28T12:25:49.999Z</time></trkpt><trkpt lat="42.91334780133983" lon="13.173857586096018"><ele>1580.2857142857142</ele><time>2026-03-28T12:25:54Z</time></trkpt><trkpt lat="42.913309711139306" lon="13.173938507907275"><ele>1583.4285714285716</ele><time>2026-03-28T12:25:58Z</time></trkpt><trkpt lat="42.91326476332824" lon="13.174027790857778"><ele>1586.5714285714284</ele><time>2026-03-28T12:26:03Z</time></trkpt><trkpt lat="42.91322898837065" lon="13.174106724940245"><ele>1589.7142857142858</ele><time>2026-03-28T12:26:07Z</time></trkpt><trkpt lat="42.913186473392074" lon="13.17419861213773"><ele>1592.857142857143</ele><time>2026-03-28T12:26:12Z</time></trkpt><trkpt lat="42.91314808265463" lon="13.17426705535151"><ele>1596.0</ele><time>2026-03-28T12:26:40Z</time></trkpt><trkpt lat="42.91311414036105" lon="13.174339875708991"><ele>1599.0</ele><time>2026-03-28T12:26:47Z</time></trkpt><trkpt lat="42.91307269598731" lon="13.17442540102535"><ele>1602.0</ele><time>2026-03-28T12:26:53Z</time></trkpt><trkpt lat="42.91303523758822" lon="13.174504283372844"><ele>1605.0</ele><time>2026-03-28T12:26:57Z</time></trkpt><trkpt lat="42.912998336089586" lon="13.174576195514817"><ele>1608.0</ele><time>2026-03-28T12:27:01Z</time></trkpt><trkpt lat="42.912963123344056" lon="13.174659997316246"><ele>1611.0</ele><time>2026-03-28T12:27:04.999Z</time></trkpt><trkpt lat="42.91293119076465" lon="13.17474574962886"><ele>1614.0</ele><time>2026-03-28T12:27:08.999Z</time></trkpt><trkpt lat="42.91288734847218" lon="13.174822163608154"><ele>1617.0</ele><time>2026-03-28T12:27:11.999Z</time></trkpt><trkpt lat="42.91283266484187" lon="13.17486601056626"><ele>1617.0</ele><time>2026-03-28T12:27:13.999Z</time></trkpt><trkpt lat="42.912762109368664" lon="13.17484014771693"><ele>1617.0</ele><time>2026-03-28T12:27:15.999Z</time></trkpt><trkpt lat="42.91274332204658" lon="13.174756989168678"><ele>1617.0</ele><time>2026-03-28T12:27:54.999Z</time></trkpt><trkpt lat="42.91265883422262" lon="13.174729826358144"><ele>1617.0</ele><time>2026-03-28T12:27:58.999Z</time></trkpt><trkpt lat="42.9126001008267" lon="13.174690088496902"><ele>1617.0</ele><time>2026-03-28T12:28:00.999Z</time></trkpt><trkpt lat="42.912650914874845" lon="13.174517072332286"><ele>1617.0</ele><time>2026-03-28T12:29:59.999Z</time></trkpt><trkpt lat="42.912713219976176" lon="13.174470038919758"><ele>1617.0</ele><time>2026-03-28T12:30:02.999Z</time></trkpt><trkpt lat="42.91279122495112" lon="13.174419200670219"><ele>1617.0</ele><time>2026-03-28T12:30:09.999Z</time></trkpt><trkpt lat="42.91286651388537" lon="13.174350374286643"><ele>1617.0</ele><time>2026-03-28T12:30:11.999Z</time></trkpt><trkpt lat="42.91293656688171" lon="13.174248998635163"><ele>1617.0</ele><time>2026-03-28T12:30:13.999Z</time></trkpt><trkpt lat="42.91292873439298" lon="13.174154099751043"><ele>1617.0</ele><time>2026-03-28T12:30:14.999Z</time></trkpt><trkpt lat="42.912971820699546" lon="13.17408431561801"><ele>1617.0</ele><time>2026-03-28T12:30:15.999Z</time></trkpt><trkpt lat="42.912971945236684" lon="13.173997574557225"><ele>1613.5</ele><time>2026-03-28T12:30:16.999Z</time></trkpt><trkpt lat="42.91301534950946" lon="13.173931095187552"><ele>1610.0</ele><time>2026-03-28T12:30:17.999Z</time></trkpt><trkpt lat="42.91307228392428" lon="13.17387041975503"><ele>1606.5</ele><time>2026-03-28T12:30:18.999Z</time></trkpt><trkpt lat="42.913064290450606" lon="13.173778125909939"><ele>1603.0</ele><time>2026-03-28T12:30:19.999Z</time></trkpt><trkpt lat="42.91302819312507" lon="13.173679616283833"><ele>1599.5</ele><time>2026-03-28T12:30:20.999Z</time></trkpt><trkpt lat="42.91313793832089" lon="13.173596069236112"><ele>1596.0</ele><time>2026-03-28T12:30:22.999Z</time></trkpt><trkpt lat="42.913109954619934" lon="13.1734732359354"><ele>1596.0</ele><time>2026-03-28T12:30:24.999Z</time></trkpt><trkpt lat="42.91317114637789" lon="13.173367821462701"><ele>1596.0</ele><time>2026-03-28T12:30:26.999Z</time></trkpt><trkpt lat="42.91308539299409" lon="13.173219443893544"><ele>1596.0</ele><time>2026-03-28T12:30:28.999Z</time></trkpt><trkpt lat="42.9130315053443" lon="13.17315047759221"><ele>1596.0</ele><time>2026-03-28T12:30:29.999Z</time></trkpt><trkpt lat="42.9129922445923" lon="13.173069729106006"><ele>1596.0</ele><time>2026-03-28T12:30:30.999Z</time></trkpt><trkpt lat="42.9129488244793" lon="13.172983106817755"><ele>1592.6666666666667</ele><time>2026-03-28T12:30:31.999Z</time></trkpt><trkpt lat="42.9128911049256" lon="13.172928984814614"><ele>1589.3333333333335</ele><time>2026-03-28T12:30:32.999Z</time></trkpt><trkpt lat="42.91285917090922" lon="13.172839860857662"><ele>1586.0</ele><time>2026-03-28T12:30:33.999Z</time></trkpt><trkpt lat="42.91287825656839" lon="13.172740947436207"><ele>1582.6666666666667</ele><time>2026-03-28T12:30:34.999Z</time></trkpt><trkpt lat="42.91294348470587" lon="13.172686252634454"><ele>1579.3333333333335</ele><time>2026-03-28T12:30:35.999Z</time></trkpt><trkpt lat="42.91304101104938" lon="13.172694450302178"><ele>1576.0</ele><time>2026-03-28T12:30:37.999Z</time></trkpt><trkpt lat="42.91313334979629" lon="13.172642837905322"><ele>1576.0000000000002</ele><time>2026-03-28T12:30:39.999Z</time></trkpt><trkpt lat="42.91318416404047" lon="13.172585951839139"><ele>1576.0</ele><time>2026-03-28T12:30:40.999Z</time></trkpt><trkpt lat="42.91323124352572" lon="13.172516745712855"><ele>1576.0</ele><time>2026-03-28T12:30:41.999Z</time></trkpt><trkpt lat="42.91321674082975" lon="13.172431401072958"><ele>1576.0</ele><time>2026-03-28T12:30:42.999Z</time></trkpt><trkpt lat="42.91322638795718" lon="13.17229479219794"><ele>1576.0000000000002</ele><time>2026-03-28T12:30:44.999Z</time></trkpt><trkpt lat="42.913218793895176" lon="13.172185609512855"><ele>1576.0</ele><time>2026-03-28T12:30:45.999Z</time></trkpt><trkpt lat="42.91327970668251" lon="13.172092188774618"><ele>1573.5000000000002</ele><time>2026-03-28T12:30:46.999Z</time></trkpt><trkpt lat="42.91336952244758" lon="13.17203398641074"><ele>1571.0</ele><time>2026-03-28T12:30:47.999Z</time></trkpt><trkpt lat="42.91344810776937" lon="13.17202899597297"><ele>1568.5</ele><time>2026-03-28T12:30:48.999Z</time></trkpt><trkpt lat="42.91353761761725" lon="13.172077948345207"><ele>1566.0</ele><time>2026-03-28T12:30:51Z</time></trkpt><trkpt lat="42.91351260158521" lon="13.171979457996452"><ele>1563.5000000000002</ele><time>2026-03-28T12:31:19.999Z</time></trkpt><trkpt lat="42.91345155756546" lon="13.17189426127795"><ele>1561.0</ele><time>2026-03-28T12:31:21.999Z</time></trkpt><trkpt lat="42.913391464564796" lon="13.171807154107846"><ele>1561.0000000000002</ele><time>2026-03-28T12:31:23.999Z</time></trkpt><trkpt lat="42.91331091181363" lon="13.171755967315544"><ele>1561.0</ele><time>2026-03-28T12:31:25.999Z</time></trkpt><trkpt lat="42.91331644745303" lon="13.171665449138645"><ele>1561.0</ele><time>2026-03-28T12:31:27.999Z</time></trkpt><trkpt lat="42.91341648586585" lon="13.171659347321594"><ele>1561.0</ele><time>2026-03-28T12:31:29.999Z</time></trkpt><trkpt lat="42.913490394818254" lon="13.171733225204276"><ele>1561.0000000000002</ele><time>2026-03-28T12:31:31.999Z</time></trkpt><trkpt lat="42.913564069560294" lon="13.17176989349703"><ele>1561.0</ele><time>2026-03-28T12:31:33.999Z</time></trkpt><trkpt lat="42.91364590117416" lon="13.171796467829184"><ele>1559.0000000000002</ele><time>2026-03-28T12:31:35.999Z</time></trkpt><trkpt lat="42.91374624434211" lon="13.171736441640514"><ele>1557.0</ele><time>2026-03-28T12:31:37.999Z</time></trkpt><trkpt lat="42.91378500620096" lon="13.171817534548122"><ele>1555.0</ele><time>2026-03-28T12:32:10Z</time></trkpt><trkpt lat="42.91385481251948" lon="13.171713989039867"><ele>1553.0</ele><time>2026-03-28T12:33:29Z</time></trkpt><trkpt lat="42.91390149388571" lon="13.171637940822642"><ele>1551.0000000000002</ele><time>2026-03-28T12:33:41Z</time></trkpt><trkpt lat="42.91395618159747" lon="13.171584340114281"><ele>1549.0</ele><time>2026-03-28T12:33:55Z</time></trkpt><trkpt lat="42.9139444959453" lon="13.17149396386166"><ele>1542.0</ele><time>2026-03-28T12:34:01Z</time></trkpt><trkpt lat="42.91396248722572" lon="13.171581824658674"><ele>1549.0</ele><time>2026-03-28T12:38:00Z</time></trkpt></trkseg></trk></gpx>